<?xml version="1.0" encoding="UTF-8" standalone="no" ?>
<gpx xmlns="http://www.topografix.com/GPX/1/1" xmlns:xsi="http://www.w3.org/2001/XMLSchema-instance" xsi:schemaLocation="http://www.topografix.com/GPX/1/1 http://www.topografix.com/GPX/1/1/gpx.xsd" version="1.1" creator="VisuGPX - https://www.visugpx.com">
  <metadata>
    <name>La pointe du Hoc</name>
    <desc><![CDATA[Au départ de Grandcamp-Maisy par la véloroute de la liberté. Pas de difficultés particulières, visite d'un haut lieu du débarquement du 6 juin 1944.]]></desc>
  </metadata>
  <trk>
    <name><![CDATA[24 juil. 2023 à 10:19:24]]></name>
    <extensions>
      <line xmlns="http://www.topografix.com/GPX/gpx_style/0/2">
        <color>0000FF</color>
        <width>4</width>
      </line>
    </extensions>
    <trkseg>
      <trkpt lat="49.38772" lon="-1.04756">
        <ele>5</ele>
        <time>2023-07-24T08:19:25Z</time>
        <extensions>
          <visugpx:TrkExtension xmlns:visugpx="https://www.visugpx.com/editgpx/">
            <visugpx:node>1</visugpx:node>
            </visugpx:TrkExtension>
        </extensions>
      </trkpt>
      <trkpt lat="49.38772" lon="-1.04756">
        <ele>5</ele>
        <time>2023-07-24T08:19:26Z</time>
      </trkpt>
      <trkpt lat="49.38767" lon="-1.04758">
        <ele>5</ele>
        <time>2023-07-24T08:21:01Z</time>
      </trkpt>
      <trkpt lat="49.38766" lon="-1.04767">
        <ele>6</ele>
        <time>2023-07-24T08:21:16Z</time>
      </trkpt>
      <trkpt lat="49.38765" lon="-1.04776">
        <ele>6</ele>
        <time>2023-07-24T08:21:21Z</time>
      </trkpt>
      <trkpt lat="49.38765" lon="-1.04783">
        <ele>6</ele>
        <time>2023-07-24T08:21:25Z</time>
      </trkpt>
      <trkpt lat="49.38768" lon="-1.04791">
        <ele>6</ele>
        <time>2023-07-24T08:21:40Z</time>
      </trkpt>
      <trkpt lat="49.38768" lon="-1.04784">
        <ele>6</ele>
        <time>2023-07-24T08:22:35Z</time>
      </trkpt>
      <trkpt lat="49.3877" lon="-1.0476">
        <ele>7</ele>
        <time>2023-07-24T08:22:47Z</time>
      </trkpt>
      <trkpt lat="49.38774" lon="-1.04754">
        <ele>6</ele>
        <time>2023-07-24T08:23:09Z</time>
      </trkpt>
      <trkpt lat="49.38771" lon="-1.0475">
        <ele>6</ele>
        <time>2023-07-24T08:23:19Z</time>
      </trkpt>
      <trkpt lat="49.38773" lon="-1.04734">
        <ele>6</ele>
        <time>2023-07-24T08:23:29Z</time>
      </trkpt>
      <trkpt lat="49.38772" lon="-1.04727">
        <ele>6</ele>
        <time>2023-07-24T08:23:41Z</time>
      </trkpt>
      <trkpt lat="49.38771" lon="-1.0472">
        <ele>6</ele>
        <time>2023-07-24T08:24:06Z</time>
      </trkpt>
      <trkpt lat="49.38772" lon="-1.04708">
        <ele>5</ele>
        <time>2023-07-24T08:25:01Z</time>
      </trkpt>
      <trkpt lat="49.38774" lon="-1.0469">
        <ele>6</ele>
        <time>2023-07-24T08:25:17Z</time>
      </trkpt>
      <trkpt lat="49.38775" lon="-1.04683">
        <ele>6</ele>
        <time>2023-07-24T08:25:38Z</time>
      </trkpt>
      <trkpt lat="49.38776" lon="-1.04674">
        <ele>6</ele>
        <time>2023-07-24T08:26:08Z</time>
      </trkpt>
      <trkpt lat="49.38778" lon="-1.04668">
        <ele>6</ele>
        <time>2023-07-24T08:26:12Z</time>
      </trkpt>
      <trkpt lat="49.38778" lon="-1.04657">
        <ele>6</ele>
        <time>2023-07-24T08:26:19Z</time>
      </trkpt>
      <trkpt lat="49.38778" lon="-1.0465">
        <ele>7</ele>
        <time>2023-07-24T08:26:23Z</time>
      </trkpt>
      <trkpt lat="49.38783" lon="-1.04596">
        <ele>7</ele>
        <time>2023-07-24T08:26:53Z</time>
      </trkpt>
      <trkpt lat="49.38792" lon="-1.04539">
        <ele>7</ele>
        <time>2023-07-24T08:27:26Z</time>
      </trkpt>
      <trkpt lat="49.38794" lon="-1.04518">
        <ele>7</ele>
        <time>2023-07-24T08:27:40Z</time>
      </trkpt>
      <trkpt lat="49.3879" lon="-1.0452">
        <ele>8</ele>
        <time>2023-07-24T08:28:24Z</time>
      </trkpt>
      <trkpt lat="49.38791" lon="-1.04512">
        <ele>8</ele>
        <time>2023-07-24T08:29:19Z</time>
      </trkpt>
      <trkpt lat="49.38792" lon="-1.04499">
        <ele>9</ele>
        <time>2023-07-24T08:29:28Z</time>
      </trkpt>
      <trkpt lat="49.38794" lon="-1.04493">
        <ele>9</ele>
        <time>2023-07-24T08:29:31Z</time>
      </trkpt>
      <trkpt lat="49.38801" lon="-1.04466">
        <ele>8</ele>
        <time>2023-07-24T08:29:47Z</time>
      </trkpt>
      <trkpt lat="49.388" lon="-1.04459">
        <ele>8</ele>
        <time>2023-07-24T08:29:51Z</time>
      </trkpt>
      <trkpt lat="49.38802" lon="-1.04452">
        <ele>8</ele>
        <time>2023-07-24T08:29:55Z</time>
      </trkpt>
      <trkpt lat="49.38803" lon="-1.04444">
        <ele>8</ele>
        <time>2023-07-24T08:29:59Z</time>
      </trkpt>
      <trkpt lat="49.38807" lon="-1.04435">
        <ele>8</ele>
        <time>2023-07-24T08:30:09Z</time>
      </trkpt>
      <trkpt lat="49.3882" lon="-1.04387">
        <ele>8</ele>
        <time>2023-07-24T08:30:41Z</time>
      </trkpt>
      <trkpt lat="49.38822" lon="-1.04367">
        <ele>8</ele>
        <time>2023-07-24T08:30:57Z</time>
      </trkpt>
      <trkpt lat="49.38825" lon="-1.04363">
        <ele>8</ele>
        <time>2023-07-24T08:31:01Z</time>
      </trkpt>
      <trkpt lat="49.38831" lon="-1.04344">
        <ele>7</ele>
        <time>2023-07-24T08:31:14Z</time>
      </trkpt>
      <trkpt lat="49.38834" lon="-1.04338">
        <ele>7</ele>
        <time>2023-07-24T08:31:21Z</time>
      </trkpt>
      <trkpt lat="49.38839" lon="-1.04317">
        <ele>7</ele>
        <time>2023-07-24T08:31:33Z</time>
      </trkpt>
      <trkpt lat="49.38857" lon="-1.04269">
        <ele>7</ele>
        <time>2023-07-24T08:32:04Z</time>
      </trkpt>
      <trkpt lat="49.38859" lon="-1.04261">
        <ele>7</ele>
        <time>2023-07-24T08:32:08Z</time>
      </trkpt>
      <trkpt lat="49.38862" lon="-1.04256">
        <ele>7</ele>
        <time>2023-07-24T08:32:12Z</time>
      </trkpt>
      <trkpt lat="49.38864" lon="-1.04249">
        <ele>7</ele>
        <time>2023-07-24T08:32:16Z</time>
      </trkpt>
      <trkpt lat="49.38863" lon="-1.04242">
        <ele>7</ele>
        <time>2023-07-24T08:32:25Z</time>
      </trkpt>
      <trkpt lat="49.38878" lon="-1.04205">
        <ele>7</ele>
        <time>2023-07-24T08:32:53Z</time>
      </trkpt>
      <trkpt lat="49.38879" lon="-1.04197">
        <ele>7</ele>
        <time>2023-07-24T08:32:58Z</time>
      </trkpt>
      <trkpt lat="49.38881" lon="-1.04192">
        <ele>7</ele>
        <time>2023-07-24T08:33:02Z</time>
      </trkpt>
      <trkpt lat="49.38881" lon="-1.04182">
        <ele>6</ele>
        <time>2023-07-24T08:33:11Z</time>
      </trkpt>
      <trkpt lat="49.38883" lon="-1.04176">
        <ele>6</ele>
        <time>2023-07-24T08:33:15Z</time>
      </trkpt>
      <trkpt lat="49.38887" lon="-1.0417">
        <ele>6</ele>
        <time>2023-07-24T08:33:19Z</time>
      </trkpt>
      <trkpt lat="49.3889" lon="-1.04149">
        <ele>6</ele>
        <time>2023-07-24T08:33:33Z</time>
      </trkpt>
      <trkpt lat="49.38892" lon="-1.04143">
        <ele>6</ele>
        <time>2023-07-24T08:33:37Z</time>
      </trkpt>
      <trkpt lat="49.38905" lon="-1.0411">
        <ele>6</ele>
        <time>2023-07-24T08:33:58Z</time>
      </trkpt>
      <trkpt lat="49.38906" lon="-1.04103">
        <ele>6</ele>
        <time>2023-07-24T08:34:02Z</time>
      </trkpt>
      <trkpt lat="49.38909" lon="-1.04097">
        <ele>6</ele>
        <time>2023-07-24T08:34:06Z</time>
      </trkpt>
      <trkpt lat="49.38913" lon="-1.04092">
        <ele>6</ele>
        <time>2023-07-24T08:34:10Z</time>
      </trkpt>
      <trkpt lat="49.38913" lon="-1.04077">
        <ele>6</ele>
        <time>2023-07-24T08:34:20Z</time>
      </trkpt>
      <trkpt lat="49.38918" lon="-1.04074">
        <ele>6</ele>
        <time>2023-07-24T08:34:24Z</time>
      </trkpt>
      <trkpt lat="49.38917" lon="-1.04063">
        <ele>5</ele>
        <time>2023-07-24T08:35:19Z</time>
      </trkpt>
      <trkpt lat="49.38913" lon="-1.04027">
        <ele>5</ele>
        <time>2023-07-24T08:35:39Z</time>
      </trkpt>
      <trkpt lat="49.38917" lon="-1.0397">
        <ele>6</ele>
        <time>2023-07-24T08:36:11Z</time>
      </trkpt>
      <trkpt lat="49.38918" lon="-1.03956">
        <ele>6</ele>
        <time>2023-07-24T08:36:19Z</time>
      </trkpt>
      <trkpt lat="49.38916" lon="-1.03949">
        <ele>6</ele>
        <time>2023-07-24T08:36:23Z</time>
      </trkpt>
      <trkpt lat="49.38901" lon="-1.03943">
        <ele>6</ele>
        <time>2023-07-24T08:36:36Z</time>
      </trkpt>
      <trkpt lat="49.38896" lon="-1.03942">
        <ele>6</ele>
        <time>2023-07-24T08:36:40Z</time>
      </trkpt>
      <trkpt lat="49.38892" lon="-1.03942">
        <ele>2</ele>
        <time>2023-07-24T08:36:44Z</time>
      </trkpt>
      <trkpt lat="49.38887" lon="-1.03942">
        <ele>7</ele>
        <time>2023-07-24T08:36:49Z</time>
      </trkpt>
      <trkpt lat="49.38868" lon="-1.03948">
        <ele>6</ele>
        <time>2023-07-24T08:37:19Z</time>
      </trkpt>
      <trkpt lat="49.38853" lon="-1.03941">
        <ele>6</ele>
        <time>2023-07-24T08:37:30Z</time>
      </trkpt>
      <trkpt lat="49.38849" lon="-1.03937">
        <ele>6</ele>
        <time>2023-07-24T08:37:34Z</time>
      </trkpt>
      <trkpt lat="49.38843" lon="-1.03883">
        <ele>6</ele>
        <time>2023-07-24T08:38:06Z</time>
      </trkpt>
      <trkpt lat="49.38841" lon="-1.03854">
        <ele>7</ele>
        <time>2023-07-24T08:38:22Z</time>
      </trkpt>
      <trkpt lat="49.38838" lon="-1.03848">
        <ele>7</ele>
        <time>2023-07-24T08:38:26Z</time>
      </trkpt>
      <trkpt lat="49.38835" lon="-1.03836">
        <ele>8</ele>
        <time>2023-07-24T08:38:34Z</time>
      </trkpt>
      <trkpt lat="49.38832" lon="-1.0383">
        <ele>8</ele>
        <time>2023-07-24T08:38:38Z</time>
      </trkpt>
      <trkpt lat="49.38829" lon="-1.03825">
        <ele>8</ele>
        <time>2023-07-24T08:38:43Z</time>
      </trkpt>
      <trkpt lat="49.38825" lon="-1.03821">
        <ele>8</ele>
        <time>2023-07-24T08:38:47Z</time>
      </trkpt>
      <trkpt lat="49.38817" lon="-1.03818">
        <ele>9</ele>
        <time>2023-07-24T08:38:55Z</time>
      </trkpt>
      <trkpt lat="49.38812" lon="-1.03814">
        <ele>9</ele>
        <time>2023-07-24T08:38:59Z</time>
      </trkpt>
      <trkpt lat="49.38807" lon="-1.03813">
        <ele>9</ele>
        <time>2023-07-24T08:39:03Z</time>
      </trkpt>
      <trkpt lat="49.38803" lon="-1.03814">
        <ele>10</ele>
        <time>2023-07-24T08:39:07Z</time>
      </trkpt>
      <trkpt lat="49.38799" lon="-1.03818">
        <ele>10</ele>
        <time>2023-07-24T08:39:12Z</time>
      </trkpt>
      <trkpt lat="49.3879" lon="-1.03824">
        <ele>11</ele>
        <time>2023-07-24T08:39:20Z</time>
      </trkpt>
      <trkpt lat="49.38768" lon="-1.03837">
        <ele>12</ele>
        <time>2023-07-24T08:39:40Z</time>
      </trkpt>
      <trkpt lat="49.3876" lon="-1.03845">
        <ele>12</ele>
        <time>2023-07-24T08:39:48Z</time>
      </trkpt>
      <trkpt lat="49.38732" lon="-1.03887">
        <ele>11</ele>
        <time>2023-07-24T08:40:21Z</time>
      </trkpt>
      <trkpt lat="49.38717" lon="-1.03904">
        <ele>11</ele>
        <time>2023-07-24T08:40:37Z</time>
      </trkpt>
      <trkpt lat="49.387" lon="-1.0392">
        <ele>11</ele>
        <time>2023-07-24T08:40:53Z</time>
      </trkpt>
      <trkpt lat="49.38692" lon="-1.0393">
        <ele>11</ele>
        <time>2023-07-24T08:41:04Z</time>
      </trkpt>
      <trkpt lat="49.38689" lon="-1.03937">
        <ele>11</ele>
        <time>2023-07-24T08:41:09Z</time>
      </trkpt>
      <trkpt lat="49.38672" lon="-1.0394">
        <ele>11</ele>
        <time>2023-07-24T08:41:30Z</time>
      </trkpt>
      <trkpt lat="49.38683" lon="-1.0393">
        <ele>11</ele>
        <time>2023-07-24T08:41:41Z</time>
      </trkpt>
      <trkpt lat="49.38703" lon="-1.03924">
        <ele>11</ele>
        <time>2023-07-24T08:41:53Z</time>
      </trkpt>
      <trkpt lat="49.38705" lon="-1.03919">
        <ele>11</ele>
        <time>2023-07-24T08:41:56Z</time>
      </trkpt>
      <trkpt lat="49.38707" lon="-1.03913">
        <ele>11</ele>
        <time>2023-07-24T08:42:00Z</time>
      </trkpt>
      <trkpt lat="49.38731" lon="-1.03889">
        <ele>11</ele>
        <time>2023-07-24T08:42:26Z</time>
      </trkpt>
      <trkpt lat="49.38752" lon="-1.0386">
        <ele>11</ele>
        <time>2023-07-24T08:42:51Z</time>
      </trkpt>
      <trkpt lat="49.38754" lon="-1.03853">
        <ele>11</ele>
        <time>2023-07-24T08:42:55Z</time>
      </trkpt>
      <trkpt lat="49.38758" lon="-1.03849">
        <ele>11</ele>
        <time>2023-07-24T08:42:59Z</time>
      </trkpt>
      <trkpt lat="49.38764" lon="-1.03839">
        <ele>11</ele>
        <time>2023-07-24T08:43:07Z</time>
      </trkpt>
      <trkpt lat="49.38802" lon="-1.03818">
        <ele>10</ele>
        <time>2023-07-24T08:43:45Z</time>
      </trkpt>
      <trkpt lat="49.3881" lon="-1.03812">
        <ele>10</ele>
        <time>2023-07-24T08:44:00Z</time>
      </trkpt>
      <trkpt lat="49.38804" lon="-1.03806">
        <ele>10</ele>
        <time>2023-07-24T08:44:43Z</time>
      </trkpt>
      <trkpt lat="49.38798" lon="-1.03804">
        <ele>10</ele>
        <time>2023-07-24T08:44:47Z</time>
      </trkpt>
      <trkpt lat="49.38794" lon="-1.038">
        <ele>11</ele>
        <time>2023-07-24T08:44:51Z</time>
      </trkpt>
      <trkpt lat="49.38785" lon="-1.03783">
        <ele>13</ele>
        <time>2023-07-24T08:45:05Z</time>
      </trkpt>
      <trkpt lat="49.38781" lon="-1.03779">
        <ele>13</ele>
        <time>2023-07-24T08:45:09Z</time>
      </trkpt>
      <trkpt lat="49.38778" lon="-1.03773">
        <ele>14</ele>
        <time>2023-07-24T08:45:13Z</time>
      </trkpt>
      <trkpt lat="49.38747" lon="-1.0374">
        <ele>17</ele>
        <time>2023-07-24T08:45:46Z</time>
      </trkpt>
      <trkpt lat="49.38716" lon="-1.0371">
        <ele>19</ele>
        <time>2023-07-24T08:46:18Z</time>
      </trkpt>
      <trkpt lat="49.38707" lon="-1.03694">
        <ele>20</ele>
        <time>2023-07-24T08:46:30Z</time>
      </trkpt>
      <trkpt lat="49.38688" lon="-1.03668">
        <ele>22</ele>
        <time>2023-07-24T08:46:54Z</time>
      </trkpt>
      <trkpt lat="49.38684" lon="-1.03666">
        <ele>23</ele>
        <time>2023-07-24T08:47:39Z</time>
      </trkpt>
      <trkpt lat="49.38693" lon="-1.03629">
        <ele>24</ele>
        <time>2023-07-24T08:47:57Z</time>
      </trkpt>
      <trkpt lat="49.38698" lon="-1.0357">
        <ele>24</ele>
        <time>2023-07-24T08:48:29Z</time>
      </trkpt>
      <trkpt lat="49.38705" lon="-1.03511">
        <ele>24</ele>
        <time>2023-07-24T08:49:01Z</time>
      </trkpt>
      <trkpt lat="49.38708" lon="-1.03453">
        <ele>23</ele>
        <time>2023-07-24T08:49:33Z</time>
      </trkpt>
      <trkpt lat="49.38715" lon="-1.03399">
        <ele>23</ele>
        <time>2023-07-24T08:50:03Z</time>
      </trkpt>
      <trkpt lat="49.38717" lon="-1.03378">
        <ele>24</ele>
        <time>2023-07-24T08:50:15Z</time>
      </trkpt>
      <trkpt lat="49.38723" lon="-1.03321">
        <ele>23</ele>
        <time>2023-07-24T08:50:47Z</time>
      </trkpt>
      <trkpt lat="49.38733" lon="-1.03274">
        <ele>22</ele>
        <time>2023-07-24T08:51:15Z</time>
      </trkpt>
      <trkpt lat="49.38733" lon="-1.03266">
        <ele>22</ele>
        <time>2023-07-24T08:51:20Z</time>
      </trkpt>
      <trkpt lat="49.38734" lon="-1.03258">
        <ele>22</ele>
        <time>2023-07-24T08:51:24Z</time>
      </trkpt>
      <trkpt lat="49.3874" lon="-1.03246">
        <ele>22</ele>
        <time>2023-07-24T08:51:32Z</time>
      </trkpt>
      <trkpt lat="49.38741" lon="-1.03239">
        <ele>22</ele>
        <time>2023-07-24T08:51:36Z</time>
      </trkpt>
      <trkpt lat="49.38744" lon="-1.03227">
        <ele>22</ele>
        <time>2023-07-24T08:51:44Z</time>
      </trkpt>
      <trkpt lat="49.38748" lon="-1.03221">
        <ele>22</ele>
        <time>2023-07-24T08:51:49Z</time>
      </trkpt>
      <trkpt lat="49.3875" lon="-1.03208">
        <ele>21</ele>
        <time>2023-07-24T08:53:52Z</time>
      </trkpt>
      <trkpt lat="49.38752" lon="-1.03202">
        <ele>21</ele>
        <time>2023-07-24T08:53:55Z</time>
      </trkpt>
      <trkpt lat="49.38768" lon="-1.03148">
        <ele>21</ele>
        <time>2023-07-24T08:54:27Z</time>
      </trkpt>
      <trkpt lat="49.38776" lon="-1.03122">
        <ele>21</ele>
        <time>2023-07-24T08:54:43Z</time>
      </trkpt>
      <trkpt lat="49.38783" lon="-1.03123">
        <ele>21</ele>
        <time>2023-07-24T08:54:51Z</time>
      </trkpt>
      <trkpt lat="49.38787" lon="-1.0312">
        <ele>21</ele>
        <time>2023-07-24T08:54:55Z</time>
      </trkpt>
      <trkpt lat="49.38793" lon="-1.03113">
        <ele>21</ele>
        <time>2023-07-24T08:55:04Z</time>
      </trkpt>
      <trkpt lat="49.38807" lon="-1.03107">
        <ele>21</ele>
        <time>2023-07-24T08:55:16Z</time>
      </trkpt>
      <trkpt lat="49.38811" lon="-1.031">
        <ele>20</ele>
        <time>2023-07-24T08:55:29Z</time>
      </trkpt>
      <trkpt lat="49.38814" lon="-1.03096">
        <ele>20</ele>
        <time>2023-07-24T08:55:33Z</time>
      </trkpt>
      <trkpt lat="49.38812" lon="-1.03088">
        <ele>20</ele>
        <time>2023-07-24T08:55:37Z</time>
      </trkpt>
      <trkpt lat="49.38809" lon="-1.03083">
        <ele>20</ele>
        <time>2023-07-24T08:55:41Z</time>
      </trkpt>
      <trkpt lat="49.38807" lon="-1.03076">
        <ele>20</ele>
        <time>2023-07-24T08:55:45Z</time>
      </trkpt>
      <trkpt lat="49.38807" lon="-1.03069">
        <ele>20</ele>
        <time>2023-07-24T08:55:49Z</time>
      </trkpt>
      <trkpt lat="49.38808" lon="-1.03062">
        <ele>20</ele>
        <time>2023-07-24T08:55:53Z</time>
      </trkpt>
      <trkpt lat="49.38815" lon="-1.03004">
        <ele>20</ele>
        <time>2023-07-24T08:56:25Z</time>
      </trkpt>
      <trkpt lat="49.3882" lon="-1.02946">
        <ele>20</ele>
        <time>2023-07-24T08:56:57Z</time>
      </trkpt>
      <trkpt lat="49.38823" lon="-1.02932">
        <ele>19</ele>
        <time>2023-07-24T08:57:05Z</time>
      </trkpt>
      <trkpt lat="49.38823" lon="-1.02924">
        <ele>19</ele>
        <time>2023-07-24T08:57:09Z</time>
      </trkpt>
      <trkpt lat="49.38832" lon="-1.02864">
        <ele>19</ele>
        <time>2023-07-24T08:57:41Z</time>
      </trkpt>
      <trkpt lat="49.38842" lon="-1.02808">
        <ele>18</ele>
        <time>2023-07-24T08:58:13Z</time>
      </trkpt>
      <trkpt lat="49.38847" lon="-1.02781">
        <ele>18</ele>
        <time>2023-07-24T08:58:29Z</time>
      </trkpt>
      <trkpt lat="49.38852" lon="-1.02777">
        <ele>17</ele>
        <time>2023-07-24T09:00:50Z</time>
      </trkpt>
      <trkpt lat="49.38858" lon="-1.02778">
        <ele>17</ele>
        <time>2023-07-24T09:00:55Z</time>
      </trkpt>
      <trkpt lat="49.38894" lon="-1.02795">
        <ele>17</ele>
        <time>2023-07-24T09:01:27Z</time>
      </trkpt>
      <trkpt lat="49.38932" lon="-1.02811">
        <ele>15</ele>
        <time>2023-07-24T09:01:59Z</time>
      </trkpt>
      <trkpt lat="49.38942" lon="-1.0281">
        <ele>14</ele>
        <time>2023-07-24T09:02:07Z</time>
      </trkpt>
      <trkpt lat="49.38947" lon="-1.02806">
        <ele>14</ele>
        <time>2023-07-24T09:02:11Z</time>
      </trkpt>
      <trkpt lat="49.38951" lon="-1.02802">
        <ele>14</ele>
        <time>2023-07-24T09:02:15Z</time>
      </trkpt>
      <trkpt lat="49.38955" lon="-1.02797">
        <ele>14</ele>
        <time>2023-07-24T09:02:19Z</time>
      </trkpt>
      <trkpt lat="49.38966" lon="-1.02763">
        <ele>14</ele>
        <time>2023-07-24T09:02:38Z</time>
      </trkpt>
      <trkpt lat="49.38968" lon="-1.02757">
        <ele>14</ele>
        <time>2023-07-24T09:02:42Z</time>
      </trkpt>
      <trkpt lat="49.38973" lon="-1.02744">
        <ele>14</ele>
        <time>2023-07-24T09:02:51Z</time>
      </trkpt>
      <trkpt lat="49.38977" lon="-1.0274">
        <ele>14</ele>
        <time>2023-07-24T09:02:55Z</time>
      </trkpt>
      <trkpt lat="49.38989" lon="-1.02729">
        <ele>14</ele>
        <time>2023-07-24T09:03:08Z</time>
      </trkpt>
      <trkpt lat="49.38993" lon="-1.02726">
        <ele>13</ele>
        <time>2023-07-24T09:03:53Z</time>
      </trkpt>
      <trkpt lat="49.39" lon="-1.02718">
        <ele>13</ele>
        <time>2023-07-24T09:04:01Z</time>
      </trkpt>
      <trkpt lat="49.39034" lon="-1.02688">
        <ele>11</ele>
        <time>2023-07-24T09:04:33Z</time>
      </trkpt>
      <trkpt lat="49.39062" lon="-1.02663">
        <ele>10</ele>
        <time>2023-07-24T09:05:03Z</time>
      </trkpt>
      <trkpt lat="49.39097" lon="-1.02635">
        <ele>8</ele>
        <time>2023-07-24T09:05:35Z</time>
      </trkpt>
      <trkpt lat="49.39131" lon="-1.02608">
        <ele>7</ele>
        <time>2023-07-24T09:06:07Z</time>
      </trkpt>
      <trkpt lat="49.39165" lon="-1.0258">
        <ele>5</ele>
        <time>2023-07-24T09:06:39Z</time>
      </trkpt>
      <trkpt lat="49.39183" lon="-1.02563">
        <ele>4</ele>
        <time>2023-07-24T09:07:05Z</time>
      </trkpt>
      <trkpt lat="49.39185" lon="-1.02557">
        <ele>4</ele>
        <time>2023-07-24T09:07:09Z</time>
      </trkpt>
      <trkpt lat="49.39188" lon="-1.02548">
        <ele>4</ele>
        <time>2023-07-24T09:08:04Z</time>
      </trkpt>
      <trkpt lat="49.39191" lon="-1.02491">
        <ele>5</ele>
        <time>2023-07-24T09:08:37Z</time>
      </trkpt>
      <trkpt lat="49.39194" lon="-1.02435">
        <ele>5</ele>
        <time>2023-07-24T09:09:09Z</time>
      </trkpt>
      <trkpt lat="49.39196" lon="-1.02406">
        <ele>6</ele>
        <time>2023-07-24T09:09:25Z</time>
      </trkpt>
      <trkpt lat="49.39203" lon="-1.02387">
        <ele>6</ele>
        <time>2023-07-24T09:09:37Z</time>
      </trkpt>
      <trkpt lat="49.39208" lon="-1.02375">
        <ele>6</ele>
        <time>2023-07-24T09:09:45Z</time>
      </trkpt>
      <trkpt lat="49.39227" lon="-1.02325">
        <ele>5</ele>
        <time>2023-07-24T09:10:17Z</time>
      </trkpt>
      <trkpt lat="49.39247" lon="-1.02276">
        <ele>5</ele>
        <time>2023-07-24T09:10:49Z</time>
      </trkpt>
      <trkpt lat="49.39266" lon="-1.02226">
        <ele>4</ele>
        <time>2023-07-24T09:11:21Z</time>
      </trkpt>
      <trkpt lat="49.39281" lon="-1.02181">
        <ele>3</ele>
        <time>2023-07-24T09:11:49Z</time>
      </trkpt>
      <trkpt lat="49.39293" lon="-1.02126">
        <ele>2</ele>
        <time>2023-07-24T09:12:21Z</time>
      </trkpt>
      <trkpt lat="49.39297" lon="-1.02102">
        <ele>2</ele>
        <time>2023-07-24T09:12:51Z</time>
      </trkpt>
      <trkpt lat="49.39298" lon="-1.02095">
        <ele>2</ele>
        <time>2023-07-24T09:12:55Z</time>
      </trkpt>
      <trkpt lat="49.393" lon="-1.02089">
        <ele>2</ele>
        <time>2023-07-24T09:12:59Z</time>
      </trkpt>
      <trkpt lat="49.39307" lon="-1.0208">
        <ele>2</ele>
        <time>2023-07-24T09:13:07Z</time>
      </trkpt>
      <trkpt lat="49.39319" lon="-1.0207">
        <ele>3</ele>
        <time>2023-07-24T09:13:19Z</time>
      </trkpt>
      <trkpt lat="49.39323" lon="-1.02067">
        <ele>3</ele>
        <time>2023-07-24T09:13:23Z</time>
      </trkpt>
      <trkpt lat="49.39325" lon="-1.02061">
        <ele>3</ele>
        <time>2023-07-24T09:13:27Z</time>
      </trkpt>
      <trkpt lat="49.39333" lon="-1.02064">
        <ele>3</ele>
        <time>2023-07-24T09:13:49Z</time>
      </trkpt>
      <trkpt lat="49.39346" lon="-1.02062">
        <ele>3</ele>
        <time>2023-07-24T09:14:01Z</time>
      </trkpt>
      <trkpt lat="49.3935" lon="-1.02072">
        <ele>2</ele>
        <time>2023-07-24T09:14:15Z</time>
      </trkpt>
      <trkpt lat="49.39357" lon="-1.02073">
        <ele>1</ele>
        <time>2023-07-24T09:14:36Z</time>
      </trkpt>
      <trkpt lat="49.39354" lon="-1.02073">
        <ele>1</ele>
        <time>2023-07-24T09:15:29Z</time>
      </trkpt>
      <trkpt lat="49.3935" lon="-1.02078">
        <ele>1</ele>
        <time>2023-07-24T09:16:24Z</time>
      </trkpt>
      <trkpt lat="49.39351" lon="-1.02069">
        <ele>1</ele>
        <time>2023-07-24T09:17:44Z</time>
      </trkpt>
      <trkpt lat="49.39347" lon="-1.02063">
        <ele>2</ele>
        <time>2023-07-24T09:17:54Z</time>
      </trkpt>
      <trkpt lat="49.39347" lon="-1.0205">
        <ele>2</ele>
        <time>2023-07-24T09:19:32Z</time>
      </trkpt>
      <trkpt lat="49.39346" lon="-1.01999">
        <ele>2</ele>
        <time>2023-07-24T09:20:02Z</time>
      </trkpt>
      <trkpt lat="49.39344" lon="-1.01941">
        <ele>2</ele>
        <time>2023-07-24T09:20:34Z</time>
      </trkpt>
      <trkpt lat="49.39344" lon="-1.01927">
        <ele>2</ele>
        <time>2023-07-24T09:20:42Z</time>
      </trkpt>
      <trkpt lat="49.39338" lon="-1.01922">
        <ele>2</ele>
        <time>2023-07-24T09:20:50Z</time>
      </trkpt>
      <trkpt lat="49.39336" lon="-1.01918">
        <ele>3</ele>
        <time>2023-07-24T09:21:10Z</time>
      </trkpt>
      <trkpt lat="49.39336" lon="-1.0191">
        <ele>3</ele>
        <time>2023-07-24T09:21:14Z</time>
      </trkpt>
      <trkpt lat="49.39339" lon="-1.01854">
        <ele>5</ele>
        <time>2023-07-24T09:21:45Z</time>
      </trkpt>
      <trkpt lat="49.3934" lon="-1.01841">
        <ele>6</ele>
        <time>2023-07-24T09:21:53Z</time>
      </trkpt>
      <trkpt lat="49.39333" lon="-1.01829">
        <ele>7</ele>
        <time>2023-07-24T09:22:03Z</time>
      </trkpt>
      <trkpt lat="49.39323" lon="-1.01813">
        <ele>8</ele>
        <time>2023-07-24T09:22:17Z</time>
      </trkpt>
      <trkpt lat="49.39321" lon="-1.01807">
        <ele>9</ele>
        <time>2023-07-24T09:22:22Z</time>
      </trkpt>
      <trkpt lat="49.3932" lon="-1.018">
        <ele>9</ele>
        <time>2023-07-24T09:22:26Z</time>
      </trkpt>
      <trkpt lat="49.39321" lon="-1.01744">
        <ele>11</ele>
        <time>2023-07-24T09:22:59Z</time>
      </trkpt>
      <trkpt lat="49.39324" lon="-1.01688">
        <ele>12</ele>
        <time>2023-07-24T09:23:31Z</time>
      </trkpt>
      <trkpt lat="49.39331" lon="-1.01632">
        <ele>12</ele>
        <time>2023-07-24T09:24:03Z</time>
      </trkpt>
      <trkpt lat="49.39335" lon="-1.01598">
        <ele>12</ele>
        <time>2023-07-24T09:24:23Z</time>
      </trkpt>
      <trkpt lat="49.39337" lon="-1.0159">
        <ele>12</ele>
        <time>2023-07-24T09:24:28Z</time>
      </trkpt>
      <trkpt lat="49.39338" lon="-1.01583">
        <ele>12</ele>
        <time>2023-07-24T09:24:37Z</time>
      </trkpt>
      <trkpt lat="49.39348" lon="-1.01558">
        <ele>11</ele>
        <time>2023-07-24T09:24:53Z</time>
      </trkpt>
      <trkpt lat="49.3935" lon="-1.01552">
        <ele>11</ele>
        <time>2023-07-24T09:24:57Z</time>
      </trkpt>
      <trkpt lat="49.39367" lon="-1.01519">
        <ele>12</ele>
        <time>2023-07-24T09:25:21Z</time>
      </trkpt>
      <trkpt lat="49.39381" lon="-1.01467">
        <ele>12</ele>
        <time>2023-07-24T09:25:53Z</time>
      </trkpt>
      <trkpt lat="49.39394" lon="-1.01413">
        <ele>13</ele>
        <time>2023-07-24T09:26:25Z</time>
      </trkpt>
      <trkpt lat="49.39405" lon="-1.01359">
        <ele>13</ele>
        <time>2023-07-24T09:26:57Z</time>
      </trkpt>
      <trkpt lat="49.39415" lon="-1.01305">
        <ele>14</ele>
        <time>2023-07-24T09:27:29Z</time>
      </trkpt>
      <trkpt lat="49.39416" lon="-1.01296">
        <ele>14</ele>
        <time>2023-07-24T09:27:44Z</time>
      </trkpt>
      <trkpt lat="49.39429" lon="-1.01247">
        <ele>15</ele>
        <time>2023-07-24T09:28:18Z</time>
      </trkpt>
      <trkpt lat="49.39442" lon="-1.012">
        <ele>15</ele>
        <time>2023-07-24T09:28:52Z</time>
      </trkpt>
      <trkpt lat="49.39458" lon="-1.01148">
        <ele>16</ele>
        <time>2023-07-24T09:29:24Z</time>
      </trkpt>
      <trkpt lat="49.39467" lon="-1.01122">
        <ele>16</ele>
        <time>2023-07-24T09:29:40Z</time>
      </trkpt>
      <trkpt lat="49.39468" lon="-1.01115">
        <ele>16</ele>
        <time>2023-07-24T09:29:45Z</time>
      </trkpt>
      <trkpt lat="49.39485" lon="-1.01062">
        <ele>16</ele>
        <time>2023-07-24T09:30:17Z</time>
      </trkpt>
      <trkpt lat="49.39488" lon="-1.01055">
        <ele>17</ele>
        <time>2023-07-24T09:30:21Z</time>
      </trkpt>
      <trkpt lat="49.39501" lon="-1.01001">
        <ele>17</ele>
        <time>2023-07-24T09:30:53Z</time>
      </trkpt>
      <trkpt lat="49.39516" lon="-1.00947">
        <ele>17</ele>
        <time>2023-07-24T09:31:25Z</time>
      </trkpt>
      <trkpt lat="49.39529" lon="-1.00892">
        <ele>17</ele>
        <time>2023-07-24T09:31:57Z</time>
      </trkpt>
      <trkpt lat="49.39543" lon="-1.00836">
        <ele>17</ele>
        <time>2023-07-24T09:33:37Z</time>
      </trkpt>
      <trkpt lat="49.39552" lon="-1.00803">
        <ele>17</ele>
        <time>2023-07-24T09:33:57Z</time>
      </trkpt>
      <trkpt lat="49.39561" lon="-1.00785">
        <ele>16</ele>
        <time>2023-07-24T09:34:09Z</time>
      </trkpt>
      <trkpt lat="49.39564" lon="-1.00771">
        <ele>16</ele>
        <time>2023-07-24T09:34:17Z</time>
      </trkpt>
      <trkpt lat="49.39569" lon="-1.0075">
        <ele>16</ele>
        <time>2023-07-24T09:34:29Z</time>
      </trkpt>
      <trkpt lat="49.39576" lon="-1.00751">
        <ele>16</ele>
        <time>2023-07-24T09:34:43Z</time>
      </trkpt>
      <trkpt lat="49.39581" lon="-1.00753">
        <ele>16</ele>
        <time>2023-07-24T09:34:47Z</time>
      </trkpt>
      <trkpt lat="49.39586" lon="-1.00754">
        <ele>16</ele>
        <time>2023-07-24T09:34:59Z</time>
      </trkpt>
      <trkpt lat="49.3959" lon="-1.00752">
        <ele>15</ele>
        <time>2023-07-24T09:35:52Z</time>
      </trkpt>
      <trkpt lat="49.39589" lon="-1.00751">
        <ele>13</ele>
        <time>2023-07-24T09:37:35Z</time>
      </trkpt>
      <trkpt lat="49.39584" lon="-1.00753">
        <ele>14</ele>
        <time>2023-07-24T09:43:38Z</time>
      </trkpt>
      <trkpt lat="49.39579" lon="-1.00752">
        <ele>14</ele>
        <time>2023-07-24T09:43:43Z</time>
      </trkpt>
      <trkpt lat="49.39574" lon="-1.0075">
        <ele>14</ele>
        <time>2023-07-24T09:43:48Z</time>
      </trkpt>
      <trkpt lat="49.39569" lon="-1.00744">
        <ele>15</ele>
        <time>2023-07-24T09:44:00Z</time>
      </trkpt>
      <trkpt lat="49.39573" lon="-1.00738">
        <ele>15</ele>
        <time>2023-07-24T09:45:47Z</time>
      </trkpt>
      <trkpt lat="49.39578" lon="-1.00687">
        <ele>16</ele>
        <time>2023-07-24T09:46:20Z</time>
      </trkpt>
      <trkpt lat="49.39579" lon="-1.00673">
        <ele>16</ele>
        <time>2023-07-24T09:46:28Z</time>
      </trkpt>
      <trkpt lat="49.39578" lon="-1.00667">
        <ele>16</ele>
        <time>2023-07-24T09:46:32Z</time>
      </trkpt>
      <trkpt lat="49.39579" lon="-1.00658">
        <ele>17</ele>
        <time>2023-07-24T09:49:19Z</time>
      </trkpt>
      <trkpt lat="49.3958" lon="-1.0065">
        <ele>17</ele>
        <time>2023-07-24T09:49:24Z</time>
      </trkpt>
      <trkpt lat="49.39584" lon="-1.00594">
        <ele>17</ele>
        <time>2023-07-24T09:49:56Z</time>
      </trkpt>
      <trkpt lat="49.39588" lon="-1.00536">
        <ele>18</ele>
        <time>2023-07-24T09:50:28Z</time>
      </trkpt>
      <trkpt lat="49.39591" lon="-1.00479">
        <ele>18</ele>
        <time>2023-07-24T09:51:00Z</time>
      </trkpt>
      <trkpt lat="49.39594" lon="-1.00429">
        <ele>18</ele>
        <time>2023-07-24T09:51:28Z</time>
      </trkpt>
      <trkpt lat="49.39588" lon="-1.00372">
        <ele>19</ele>
        <time>2023-07-24T09:52:01Z</time>
      </trkpt>
      <trkpt lat="49.3958" lon="-1.00317">
        <ele>20</ele>
        <time>2023-07-24T09:52:33Z</time>
      </trkpt>
      <trkpt lat="49.39575" lon="-1.00275">
        <ele>20</ele>
        <time>2023-07-24T09:55:47Z</time>
      </trkpt>
      <trkpt lat="49.39567" lon="-1.00219">
        <ele>21</ele>
        <time>2023-07-24T09:56:19Z</time>
      </trkpt>
      <trkpt lat="49.3956" lon="-1.00161">
        <ele>22</ele>
        <time>2023-07-24T09:56:51Z</time>
      </trkpt>
      <trkpt lat="49.39552" lon="-1.00105">
        <ele>23</ele>
        <time>2023-07-24T09:57:23Z</time>
      </trkpt>
      <trkpt lat="49.39543" lon="-1.0005">
        <ele>23</ele>
        <time>2023-07-24T09:57:55Z</time>
      </trkpt>
      <trkpt lat="49.39529" lon="-0.99997">
        <ele>24</ele>
        <time>2023-07-24T09:58:27Z</time>
      </trkpt>
      <trkpt lat="49.39514" lon="-0.99945">
        <ele>25</ele>
        <time>2023-07-24T09:58:59Z</time>
      </trkpt>
      <trkpt lat="49.39501" lon="-0.99899">
        <ele>25</ele>
        <time>2023-07-24T09:59:27Z</time>
      </trkpt>
      <trkpt lat="49.395" lon="-0.99893">
        <ele>25</ele>
        <time>2023-07-24T09:59:32Z</time>
      </trkpt>
      <trkpt lat="49.39508" lon="-0.99859">
        <ele>25</ele>
        <time>2023-07-24T09:59:53Z</time>
      </trkpt>
      <trkpt lat="49.39501" lon="-0.99856">
        <ele>26</ele>
        <time>2023-07-24T10:01:41Z</time>
      </trkpt>
      <trkpt lat="49.39496" lon="-0.99858">
        <ele>26</ele>
        <time>2023-07-24T10:01:46Z</time>
      </trkpt>
      <trkpt lat="49.39492" lon="-0.99857">
        <ele>26</ele>
        <time>2023-07-24T10:01:50Z</time>
      </trkpt>
      <trkpt lat="49.39487" lon="-0.99844">
        <ele>26</ele>
        <time>2023-07-24T10:01:59Z</time>
      </trkpt>
      <trkpt lat="49.39475" lon="-0.998">
        <ele>27</ele>
        <time>2023-07-24T10:02:31Z</time>
      </trkpt>
      <trkpt lat="49.3946" lon="-0.99749">
        <ele>27</ele>
        <time>2023-07-24T10:03:03Z</time>
      </trkpt>
      <trkpt lat="49.39447" lon="-0.99702">
        <ele>28</ele>
        <time>2023-07-24T10:03:33Z</time>
      </trkpt>
      <trkpt lat="49.39436" lon="-0.99651">
        <ele>28</ele>
        <time>2023-07-24T10:04:05Z</time>
      </trkpt>
      <trkpt lat="49.3943" lon="-0.99596">
        <ele>29</ele>
        <time>2023-07-24T10:04:37Z</time>
      </trkpt>
      <trkpt lat="49.3943" lon="-0.99542">
        <ele>30</ele>
        <time>2023-07-24T10:05:09Z</time>
      </trkpt>
      <trkpt lat="49.39435" lon="-0.99486">
        <ele>30</ele>
        <time>2023-07-24T10:05:41Z</time>
      </trkpt>
      <trkpt lat="49.39443" lon="-0.99432">
        <ele>31</ele>
        <time>2023-07-24T10:06:13Z</time>
      </trkpt>
      <trkpt lat="49.39451" lon="-0.99378">
        <ele>31</ele>
        <time>2023-07-24T10:06:45Z</time>
      </trkpt>
      <trkpt lat="49.39452" lon="-0.9937">
        <ele>31</ele>
        <time>2023-07-24T10:06:50Z</time>
      </trkpt>
      <trkpt lat="49.39454" lon="-0.99362">
        <ele>31</ele>
        <time>2023-07-24T10:07:06Z</time>
      </trkpt>
      <trkpt lat="49.39463" lon="-0.99306">
        <ele>32</ele>
        <time>2023-07-24T10:07:38Z</time>
      </trkpt>
      <trkpt lat="49.39466" lon="-0.99277">
        <ele>32</ele>
        <time>2023-07-24T10:07:54Z</time>
      </trkpt>
      <trkpt lat="49.39462" lon="-0.99242">
        <ele>32</ele>
        <time>2023-07-24T10:08:14Z</time>
      </trkpt>
      <trkpt lat="49.3946" lon="-0.99236">
        <ele>32</ele>
        <time>2023-07-24T10:08:18Z</time>
      </trkpt>
      <trkpt lat="49.3946" lon="-0.99229">
        <ele>32</ele>
        <time>2023-07-24T10:08:22Z</time>
      </trkpt>
      <trkpt lat="49.39453" lon="-0.99174">
        <ele>32</ele>
        <time>2023-07-24T10:09:23Z</time>
      </trkpt>
      <trkpt lat="49.39445" lon="-0.99125">
        <ele>32</ele>
        <time>2023-07-24T10:09:52Z</time>
      </trkpt>
      <trkpt lat="49.39444" lon="-0.99117">
        <ele>32</ele>
        <time>2023-07-24T10:10:00Z</time>
      </trkpt>
      <trkpt lat="49.39436" lon="-0.99061">
        <ele>32</ele>
        <time>2023-07-24T10:10:33Z</time>
      </trkpt>
      <trkpt lat="49.3943" lon="-0.99015">
        <ele>32</ele>
        <time>2023-07-24T10:11:02Z</time>
      </trkpt>
      <trkpt lat="49.39428" lon="-0.99008">
        <ele>33</ele>
        <time>2023-07-24T10:12:02Z</time>
      </trkpt>
      <trkpt lat="49.39428" lon="-0.99">
        <ele>33</ele>
        <time>2023-07-24T10:12:06Z</time>
      </trkpt>
      <trkpt lat="49.39427" lon="-0.98987">
        <ele>32</ele>
        <time>2023-07-24T10:12:15Z</time>
      </trkpt>
      <trkpt lat="49.39424" lon="-0.98965">
        <ele>33</ele>
        <time>2023-07-24T10:12:31Z</time>
      </trkpt>
      <trkpt lat="49.39421" lon="-0.98959">
        <ele>33</ele>
        <time>2023-07-24T10:12:35Z</time>
      </trkpt>
      <trkpt lat="49.39417" lon="-0.98956">
        <ele>33</ele>
        <time>2023-07-24T10:12:39Z</time>
      </trkpt>
      <trkpt lat="49.39407" lon="-0.98956">
        <ele>33</ele>
        <time>2023-07-24T10:12:47Z</time>
      </trkpt>
      <trkpt lat="49.39397" lon="-0.98959">
        <ele>33</ele>
        <time>2023-07-24T10:12:55Z</time>
      </trkpt>
      <trkpt lat="49.39364" lon="-0.98982">
        <ele>34</ele>
        <time>2023-07-24T10:13:27Z</time>
      </trkpt>
      <trkpt lat="49.39355" lon="-0.98988">
        <ele>34</ele>
        <time>2023-07-24T10:13:35Z</time>
      </trkpt>
      <trkpt lat="49.39351" lon="-0.98989">
        <ele>34</ele>
        <time>2023-07-24T10:13:39Z</time>
      </trkpt>
      <trkpt lat="49.39347" lon="-0.98985">
        <ele>35</ele>
        <time>2023-07-24T10:13:44Z</time>
      </trkpt>
      <trkpt lat="49.39348" lon="-0.98982">
        <ele>35</ele>
        <time>2023-07-24T10:15:05Z</time>
      </trkpt>
      <trkpt lat="49.39358" lon="-0.98979">
        <ele>35</ele>
        <time>2023-07-24T10:15:14Z</time>
      </trkpt>
      <trkpt lat="49.39391" lon="-0.98953">
        <ele>34</ele>
        <time>2023-07-24T10:15:45Z</time>
      </trkpt>
      <trkpt lat="49.39407" lon="-0.98946">
        <ele>34</ele>
        <time>2023-07-24T10:16:01Z</time>
      </trkpt>
      <trkpt lat="49.39416" lon="-0.9894">
        <ele>34</ele>
        <time>2023-07-24T10:16:10Z</time>
      </trkpt>
      <trkpt lat="49.39437" lon="-0.98935">
        <ele>34</ele>
        <time>2023-07-24T10:16:40Z</time>
      </trkpt>
      <trkpt lat="49.39441" lon="-0.98934">
        <ele>34</ele>
        <time>2023-07-24T10:17:30Z</time>
      </trkpt>
      <trkpt lat="49.39447" lon="-0.98929">
        <ele>34</ele>
        <time>2023-07-24T10:18:35Z</time>
      </trkpt>
      <trkpt lat="49.39454" lon="-0.98928">
        <ele>35</ele>
        <time>2023-07-24T10:20:07Z</time>
      </trkpt>
      <trkpt lat="49.3949" lon="-0.9892">
        <ele>34</ele>
        <time>2023-07-24T10:20:39Z</time>
      </trkpt>
      <trkpt lat="49.39496" lon="-0.98921">
        <ele>34</ele>
        <time>2023-07-24T10:20:44Z</time>
      </trkpt>
      <trkpt lat="49.39509" lon="-0.98928">
        <ele>33</ele>
        <time>2023-07-24T10:20:57Z</time>
      </trkpt>
      <trkpt lat="49.39531" lon="-0.98936">
        <ele>33</ele>
        <time>2023-07-24T10:21:18Z</time>
      </trkpt>
      <trkpt lat="49.39554" lon="-0.98949">
        <ele>32</ele>
        <time>2023-07-24T10:21:41Z</time>
      </trkpt>
      <trkpt lat="49.39563" lon="-0.98949">
        <ele>32</ele>
        <time>2023-07-24T10:21:49Z</time>
      </trkpt>
      <trkpt lat="49.39567" lon="-0.9895">
        <ele>32</ele>
        <time>2023-07-24T10:21:54Z</time>
      </trkpt>
      <trkpt lat="49.3957" lon="-0.98956">
        <ele>32</ele>
        <time>2023-07-24T10:22:02Z</time>
      </trkpt>
      <trkpt lat="49.39572" lon="-0.98963">
        <ele>31</ele>
        <time>2023-07-24T10:22:58Z</time>
      </trkpt>
      <trkpt lat="49.39577" lon="-0.98964">
        <ele>31</ele>
        <time>2023-07-24T10:23:03Z</time>
      </trkpt>
      <trkpt lat="49.39581" lon="-0.98959">
        <ele>31</ele>
        <time>2023-07-24T10:23:18Z</time>
      </trkpt>
      <trkpt lat="49.39586" lon="-0.98962">
        <ele>31</ele>
        <time>2023-07-24T10:23:24Z</time>
      </trkpt>
      <trkpt lat="49.39603" lon="-0.98949">
        <ele>31</ele>
        <time>2023-07-24T10:23:45Z</time>
      </trkpt>
      <trkpt lat="49.39621" lon="-0.98948">
        <ele>30</ele>
        <time>2023-07-24T10:24:04Z</time>
      </trkpt>
      <trkpt lat="49.39626" lon="-0.98946">
        <ele>30</ele>
        <time>2023-07-24T10:24:09Z</time>
      </trkpt>
      <trkpt lat="49.3963" lon="-0.98942">
        <ele>30</ele>
        <time>2023-07-24T10:24:14Z</time>
      </trkpt>
      <trkpt lat="49.39632" lon="-0.98935">
        <ele>30</ele>
        <time>2023-07-24T10:24:19Z</time>
      </trkpt>
      <trkpt lat="49.39631" lon="-0.98922">
        <ele>30</ele>
        <time>2023-07-24T10:24:28Z</time>
      </trkpt>
      <trkpt lat="49.3963" lon="-0.98916">
        <ele>31</ele>
        <time>2023-07-24T10:24:33Z</time>
      </trkpt>
      <trkpt lat="49.3963" lon="-0.98903">
        <ele>31</ele>
        <time>2023-07-24T10:24:43Z</time>
      </trkpt>
      <trkpt lat="49.39633" lon="-0.98896">
        <ele>33</ele>
        <time>2023-07-24T10:24:53Z</time>
      </trkpt>
      <trkpt lat="49.39632" lon="-0.98897">
        <ele>32</ele>
        <time>2023-07-24T10:28:07Z</time>
      </trkpt>
      <trkpt lat="49.39631" lon="-0.98906">
        <ele>29</ele>
        <time>2023-07-24T10:28:17Z</time>
      </trkpt>
      <trkpt lat="49.39639" lon="-0.98901">
        <ele>28</ele>
        <time>2023-07-24T10:28:27Z</time>
      </trkpt>
      <trkpt lat="49.39642" lon="-0.98896">
        <ele>28</ele>
        <time>2023-07-24T10:28:54Z</time>
      </trkpt>
      <trkpt lat="49.39655" lon="-0.98908">
        <ele>28</ele>
        <time>2023-07-24T10:29:16Z</time>
      </trkpt>
      <trkpt lat="49.39658" lon="-0.98916">
        <ele>28</ele>
        <time>2023-07-24T10:29:23Z</time>
      </trkpt>
      <trkpt lat="49.39662" lon="-0.98921">
        <ele>28</ele>
        <time>2023-07-24T10:29:28Z</time>
      </trkpt>
      <trkpt lat="49.39667" lon="-0.98921">
        <ele>28</ele>
        <time>2023-07-24T10:29:33Z</time>
      </trkpt>
      <trkpt lat="49.39672" lon="-0.9892">
        <ele>28</ele>
        <time>2023-07-24T10:29:38Z</time>
      </trkpt>
      <trkpt lat="49.39678" lon="-0.98922">
        <ele>28</ele>
        <time>2023-07-24T10:29:45Z</time>
      </trkpt>
      <trkpt lat="49.39683" lon="-0.98922">
        <ele>28</ele>
        <time>2023-07-24T10:29:50Z</time>
      </trkpt>
      <trkpt lat="49.39687" lon="-0.98924">
        <ele>28</ele>
        <time>2023-07-24T10:29:55Z</time>
      </trkpt>
      <trkpt lat="49.39694" lon="-0.98931">
        <ele>27</ele>
        <time>2023-07-24T10:30:04Z</time>
      </trkpt>
      <trkpt lat="49.39699" lon="-0.98934">
        <ele>27</ele>
        <time>2023-07-24T10:30:09Z</time>
      </trkpt>
      <trkpt lat="49.39703" lon="-0.98935">
        <ele>27</ele>
        <time>2023-07-24T10:30:14Z</time>
      </trkpt>
      <trkpt lat="49.39714" lon="-0.9894">
        <ele>27</ele>
        <time>2023-07-24T10:30:30Z</time>
      </trkpt>
      <trkpt lat="49.3972" lon="-0.9894">
        <ele>26</ele>
        <time>2023-07-24T10:31:00Z</time>
      </trkpt>
      <trkpt lat="49.39726" lon="-0.98941">
        <ele>24</ele>
        <time>2023-07-24T10:31:41Z</time>
      </trkpt>
      <trkpt lat="49.39727" lon="-0.98933">
        <ele>24</ele>
        <time>2023-07-24T10:31:52Z</time>
      </trkpt>
      <trkpt lat="49.39729" lon="-0.98924">
        <ele>24</ele>
        <time>2023-07-24T10:32:07Z</time>
      </trkpt>
      <trkpt lat="49.39729" lon="-0.98923">
        <ele>23</ele>
        <time>2023-07-24T10:33:54Z</time>
      </trkpt>
      <trkpt lat="49.39724" lon="-0.9892">
        <ele>24</ele>
        <time>2023-07-24T10:34:30Z</time>
      </trkpt>
      <trkpt lat="49.39719" lon="-0.98915">
        <ele>25</ele>
        <time>2023-07-24T10:34:45Z</time>
      </trkpt>
      <trkpt lat="49.39713" lon="-0.98914">
        <ele>27</ele>
        <time>2023-07-24T10:34:55Z</time>
      </trkpt>
      <trkpt lat="49.39704" lon="-0.98909">
        <ele>27</ele>
        <time>2023-07-24T10:36:11Z</time>
      </trkpt>
      <trkpt lat="49.3969" lon="-0.98896">
        <ele>27</ele>
        <time>2023-07-24T10:36:28Z</time>
      </trkpt>
      <trkpt lat="49.39685" lon="-0.98901">
        <ele>26</ele>
        <time>2023-07-24T10:36:35Z</time>
      </trkpt>
      <trkpt lat="49.39683" lon="-0.98906">
        <ele>26</ele>
        <time>2023-07-24T10:36:40Z</time>
      </trkpt>
      <trkpt lat="49.39678" lon="-0.98912">
        <ele>27</ele>
        <time>2023-07-24T10:36:49Z</time>
      </trkpt>
      <trkpt lat="49.39673" lon="-0.98916">
        <ele>27</ele>
        <time>2023-07-24T10:36:56Z</time>
      </trkpt>
      <trkpt lat="49.39668" lon="-0.98919">
        <ele>27</ele>
        <time>2023-07-24T10:37:06Z</time>
      </trkpt>
      <trkpt lat="49.39663" lon="-0.98921">
        <ele>28</ele>
        <time>2023-07-24T10:37:31Z</time>
      </trkpt>
      <trkpt lat="49.39658" lon="-0.98915">
        <ele>28</ele>
        <time>2023-07-24T10:38:14Z</time>
      </trkpt>
      <trkpt lat="49.39656" lon="-0.98909">
        <ele>28</ele>
        <time>2023-07-24T10:38:19Z</time>
      </trkpt>
      <trkpt lat="49.39653" lon="-0.98903">
        <ele>28</ele>
        <time>2023-07-24T10:38:24Z</time>
      </trkpt>
      <trkpt lat="49.39648" lon="-0.98901">
        <ele>28</ele>
        <time>2023-07-24T10:38:29Z</time>
      </trkpt>
      <trkpt lat="49.39642" lon="-0.98896">
        <ele>28</ele>
        <time>2023-07-24T10:38:38Z</time>
      </trkpt>
      <trkpt lat="49.39635" lon="-0.98902">
        <ele>28</ele>
        <time>2023-07-24T10:38:59Z</time>
      </trkpt>
      <trkpt lat="49.39629" lon="-0.98909">
        <ele>29</ele>
        <time>2023-07-24T10:39:09Z</time>
      </trkpt>
      <trkpt lat="49.39629" lon="-0.9892">
        <ele>29</ele>
        <time>2023-07-24T10:39:24Z</time>
      </trkpt>
      <trkpt lat="49.39631" lon="-0.98935">
        <ele>29</ele>
        <time>2023-07-24T10:39:36Z</time>
      </trkpt>
      <trkpt lat="49.3963" lon="-0.98941">
        <ele>29</ele>
        <time>2023-07-24T10:39:41Z</time>
      </trkpt>
      <trkpt lat="49.39626" lon="-0.98945">
        <ele>29</ele>
        <time>2023-07-24T10:39:46Z</time>
      </trkpt>
      <trkpt lat="49.39612" lon="-0.9895">
        <ele>29</ele>
        <time>2023-07-24T10:40:04Z</time>
      </trkpt>
      <trkpt lat="49.39605" lon="-0.9895">
        <ele>29</ele>
        <time>2023-07-24T10:41:20Z</time>
      </trkpt>
      <trkpt lat="49.39598" lon="-0.98952">
        <ele>29</ele>
        <time>2023-07-24T10:41:30Z</time>
      </trkpt>
      <trkpt lat="49.39591" lon="-0.98957">
        <ele>29</ele>
        <time>2023-07-24T10:41:40Z</time>
      </trkpt>
      <trkpt lat="49.39582" lon="-0.98961">
        <ele>30</ele>
        <time>2023-07-24T10:41:53Z</time>
      </trkpt>
      <trkpt lat="49.39578" lon="-0.98959">
        <ele>30</ele>
        <time>2023-07-24T10:41:58Z</time>
      </trkpt>
      <trkpt lat="49.39572" lon="-0.98954">
        <ele>30</ele>
        <time>2023-07-24T10:42:18Z</time>
      </trkpt>
      <trkpt lat="49.39568" lon="-0.9895">
        <ele>30</ele>
        <time>2023-07-24T10:42:23Z</time>
      </trkpt>
      <trkpt lat="49.39563" lon="-0.98945">
        <ele>30</ele>
        <time>2023-07-24T10:42:30Z</time>
      </trkpt>
      <trkpt lat="49.39558" lon="-0.98946">
        <ele>30</ele>
        <time>2023-07-24T10:42:34Z</time>
      </trkpt>
      <trkpt lat="49.39549" lon="-0.98944">
        <ele>30</ele>
        <time>2023-07-24T10:42:44Z</time>
      </trkpt>
      <trkpt lat="49.3952" lon="-0.98928">
        <ele>30</ele>
        <time>2023-07-24T10:43:14Z</time>
      </trkpt>
      <trkpt lat="49.39509" lon="-0.98925">
        <ele>30</ele>
        <time>2023-07-24T10:43:26Z</time>
      </trkpt>
      <trkpt lat="49.39498" lon="-0.9892">
        <ele>31</ele>
        <time>2023-07-24T10:43:38Z</time>
      </trkpt>
      <trkpt lat="49.39478" lon="-0.9892">
        <ele>31</ele>
        <time>2023-07-24T10:43:58Z</time>
      </trkpt>
      <trkpt lat="49.39447" lon="-0.98929">
        <ele>32</ele>
        <time>2023-07-24T10:44:31Z</time>
      </trkpt>
      <trkpt lat="49.39422" lon="-0.98935">
        <ele>32</ele>
        <time>2023-07-24T10:44:56Z</time>
      </trkpt>
      <trkpt lat="49.39416" lon="-0.9894">
        <ele>33</ele>
        <time>2023-07-24T10:45:33Z</time>
      </trkpt>
      <trkpt lat="49.39394" lon="-0.98948">
        <ele>33</ele>
        <time>2023-07-24T10:45:55Z</time>
      </trkpt>
      <trkpt lat="49.39366" lon="-0.98969">
        <ele>33</ele>
        <time>2023-07-24T10:46:51Z</time>
      </trkpt>
      <trkpt lat="49.39362" lon="-0.98972">
        <ele>34</ele>
        <time>2023-07-24T10:46:55Z</time>
      </trkpt>
      <trkpt lat="49.39357" lon="-0.98971">
        <ele>34</ele>
        <time>2023-07-24T10:46:59Z</time>
      </trkpt>
      <trkpt lat="49.39352" lon="-0.98972">
        <ele>34</ele>
        <time>2023-07-24T10:47:04Z</time>
      </trkpt>
      <trkpt lat="49.39346" lon="-0.9898">
        <ele>34</ele>
        <time>2023-07-24T10:47:18Z</time>
      </trkpt>
      <trkpt lat="49.39336" lon="-0.98989">
        <ele>34</ele>
        <time>2023-07-24T10:47:30Z</time>
      </trkpt>
      <trkpt lat="49.39325" lon="-0.98996">
        <ele>33</ele>
        <time>2023-07-24T10:47:45Z</time>
      </trkpt>
      <trkpt lat="49.39321" lon="-0.99001">
        <ele>34</ele>
        <time>2023-07-24T10:47:51Z</time>
      </trkpt>
      <trkpt lat="49.39305" lon="-0.99011">
        <ele>34</ele>
        <time>2023-07-24T10:48:33Z</time>
      </trkpt>
      <trkpt lat="49.39301" lon="-0.99013">
        <ele>34</ele>
        <time>2023-07-24T10:48:37Z</time>
      </trkpt>
      <trkpt lat="49.39289" lon="-0.99009">
        <ele>33</ele>
        <time>2023-07-24T10:48:54Z</time>
      </trkpt>
      <trkpt lat="49.39285" lon="-0.99012">
        <ele>33</ele>
        <time>2023-07-24T10:48:59Z</time>
      </trkpt>
      <trkpt lat="49.3928" lon="-0.99009">
        <ele>33</ele>
        <time>2023-07-24T10:49:04Z</time>
      </trkpt>
      <trkpt lat="49.39275" lon="-0.98996">
        <ele>34</ele>
        <time>2023-07-24T10:49:12Z</time>
      </trkpt>
      <trkpt lat="49.39275" lon="-0.98944">
        <ele>34</ele>
        <time>2023-07-24T10:49:45Z</time>
      </trkpt>
      <trkpt lat="49.39274" lon="-0.98889">
        <ele>34</ele>
        <time>2023-07-24T10:50:18Z</time>
      </trkpt>
      <trkpt lat="49.39271" lon="-0.98832">
        <ele>35</ele>
        <time>2023-07-24T10:50:52Z</time>
      </trkpt>
      <trkpt lat="49.3927" lon="-0.98776">
        <ele>35</ele>
        <time>2023-07-24T10:51:25Z</time>
      </trkpt>
      <trkpt lat="49.39267" lon="-0.98721">
        <ele>35</ele>
        <time>2023-07-24T10:51:58Z</time>
      </trkpt>
      <trkpt lat="49.39265" lon="-0.98665">
        <ele>36</ele>
        <time>2023-07-24T10:52:31Z</time>
      </trkpt>
      <trkpt lat="49.39265" lon="-0.98609">
        <ele>36</ele>
        <time>2023-07-24T10:53:05Z</time>
      </trkpt>
      <trkpt lat="49.39264" lon="-0.98574">
        <ele>36</ele>
        <time>2023-07-24T10:53:25Z</time>
      </trkpt>
      <trkpt lat="49.3927" lon="-0.98562">
        <ele>36</ele>
        <time>2023-07-24T10:53:35Z</time>
      </trkpt>
      <trkpt lat="49.39281" lon="-0.98562">
        <ele>36</ele>
        <time>2023-07-24T10:53:46Z</time>
      </trkpt>
      <trkpt lat="49.39286" lon="-0.98562">
        <ele>36</ele>
        <time>2023-07-24T10:53:50Z</time>
      </trkpt>
      <trkpt lat="49.39305" lon="-0.98565">
        <ele>36</ele>
        <time>2023-07-24T10:54:09Z</time>
      </trkpt>
      <trkpt lat="49.39329" lon="-0.98555">
        <ele>35</ele>
        <time>2023-07-24T10:54:31Z</time>
      </trkpt>
      <trkpt lat="49.39362" lon="-0.98551">
        <ele>35</ele>
        <time>2023-07-24T10:55:02Z</time>
      </trkpt>
      <trkpt lat="49.39386" lon="-0.98547">
        <ele>35</ele>
        <time>2023-07-24T10:55:24Z</time>
      </trkpt>
      <trkpt lat="49.39415" lon="-0.9853">
        <ele>34</ele>
        <time>2023-07-24T10:55:52Z</time>
      </trkpt>
      <trkpt lat="49.39434" lon="-0.9853">
        <ele>34</ele>
        <time>2023-07-24T10:56:08Z</time>
      </trkpt>
      <trkpt lat="49.39466" lon="-0.98532">
        <ele>34</ele>
        <time>2023-07-24T10:56:36Z</time>
      </trkpt>
      <trkpt lat="49.39475" lon="-0.98531">
        <ele>34</ele>
        <time>2023-07-24T10:56:44Z</time>
      </trkpt>
      <trkpt lat="49.39488" lon="-0.98522">
        <ele>34</ele>
        <time>2023-07-24T10:56:56Z</time>
      </trkpt>
      <trkpt lat="49.39492" lon="-0.98518">
        <ele>34</ele>
        <time>2023-07-24T10:57:00Z</time>
      </trkpt>
      <trkpt lat="49.39507" lon="-0.98512">
        <ele>34</ele>
        <time>2023-07-24T10:57:15Z</time>
      </trkpt>
      <trkpt lat="49.3951" lon="-0.98506">
        <ele>33</ele>
        <time>2023-07-24T10:57:19Z</time>
      </trkpt>
      <trkpt lat="49.39512" lon="-0.98501">
        <ele>33</ele>
        <time>2023-07-24T10:57:23Z</time>
      </trkpt>
      <trkpt lat="49.39514" lon="-0.98485">
        <ele>33</ele>
        <time>2023-07-24T10:57:32Z</time>
      </trkpt>
      <trkpt lat="49.39513" lon="-0.98472">
        <ele>33</ele>
        <time>2023-07-24T10:57:40Z</time>
      </trkpt>
      <trkpt lat="49.39505" lon="-0.98445">
        <ele>33</ele>
        <time>2023-07-24T10:58:01Z</time>
      </trkpt>
      <trkpt lat="49.39505" lon="-0.98432">
        <ele>33</ele>
        <time>2023-07-24T10:58:09Z</time>
      </trkpt>
      <trkpt lat="49.3951" lon="-0.98412">
        <ele>33</ele>
        <time>2023-07-24T10:58:22Z</time>
      </trkpt>
      <trkpt lat="49.39515" lon="-0.984">
        <ele>33</ele>
        <time>2023-07-24T10:58:30Z</time>
      </trkpt>
      <trkpt lat="49.39516" lon="-0.98394">
        <ele>33</ele>
        <time>2023-07-24T10:58:34Z</time>
      </trkpt>
      <trkpt lat="49.39516" lon="-0.98386">
        <ele>33</ele>
        <time>2023-07-24T10:58:39Z</time>
      </trkpt>
      <trkpt lat="49.3951" lon="-0.98368">
        <ele>34</ele>
        <time>2023-07-24T10:58:51Z</time>
      </trkpt>
      <trkpt lat="49.39496" lon="-0.98317">
        <ele>33</ele>
        <time>2023-07-24T10:59:23Z</time>
      </trkpt>
      <trkpt lat="49.39479" lon="-0.9828">
        <ele>33</ele>
        <time>2023-07-24T10:59:56Z</time>
      </trkpt>
      <trkpt lat="49.39475" lon="-0.98268">
        <ele>33</ele>
        <time>2023-07-24T11:00:04Z</time>
      </trkpt>
      <trkpt lat="49.39472" lon="-0.98248">
        <ele>32</ele>
        <time>2023-07-24T11:00:16Z</time>
      </trkpt>
      <trkpt lat="49.39474" lon="-0.98232">
        <ele>32</ele>
        <time>2023-07-24T11:00:27Z</time>
      </trkpt>
      <trkpt lat="49.39478" lon="-0.98218">
        <ele>32</ele>
        <time>2023-07-24T11:00:36Z</time>
      </trkpt>
      <trkpt lat="49.39496" lon="-0.98188">
        <ele>32</ele>
        <time>2023-07-24T11:01:02Z</time>
      </trkpt>
      <trkpt lat="49.39502" lon="-0.98163">
        <ele>33</ele>
        <time>2023-07-24T11:01:18Z</time>
      </trkpt>
      <trkpt lat="49.39505" lon="-0.98112">
        <ele>33</ele>
        <time>2023-07-24T11:01:49Z</time>
      </trkpt>
      <trkpt lat="49.39503" lon="-0.98078">
        <ele>33</ele>
        <time>2023-07-24T11:02:09Z</time>
      </trkpt>
      <trkpt lat="49.39499" lon="-0.9805">
        <ele>33</ele>
        <time>2023-07-24T11:02:49Z</time>
      </trkpt>
      <trkpt lat="49.39499" lon="-0.98062">
        <ele>33</ele>
        <time>2023-07-24T11:38:33Z</time>
      </trkpt>
      <trkpt lat="49.39502" lon="-0.98082">
        <ele>33</ele>
        <time>2023-07-24T11:38:45Z</time>
      </trkpt>
      <trkpt lat="49.39503" lon="-0.98089">
        <ele>34</ele>
        <time>2023-07-24T11:38:49Z</time>
      </trkpt>
      <trkpt lat="49.39504" lon="-0.98098">
        <ele>33</ele>
        <time>2023-07-24T11:38:56Z</time>
      </trkpt>
      <trkpt lat="49.39502" lon="-0.98142">
        <ele>33</ele>
        <time>2023-07-24T11:39:28Z</time>
      </trkpt>
      <trkpt lat="49.39501" lon="-0.98169">
        <ele>33</ele>
        <time>2023-07-24T11:39:47Z</time>
      </trkpt>
      <trkpt lat="49.39499" lon="-0.98178">
        <ele>33</ele>
        <time>2023-07-24T11:39:54Z</time>
      </trkpt>
      <trkpt lat="49.39497" lon="-0.98184">
        <ele>33</ele>
        <time>2023-07-24T11:39:59Z</time>
      </trkpt>
      <trkpt lat="49.39494" lon="-0.9819">
        <ele>33</ele>
        <time>2023-07-24T11:40:04Z</time>
      </trkpt>
      <trkpt lat="49.39477" lon="-0.98218">
        <ele>33</ele>
        <time>2023-07-24T11:40:31Z</time>
      </trkpt>
      <trkpt lat="49.39471" lon="-0.98242">
        <ele>33</ele>
        <time>2023-07-24T11:40:48Z</time>
      </trkpt>
      <trkpt lat="49.39471" lon="-0.98257">
        <ele>34</ele>
        <time>2023-07-24T11:40:58Z</time>
      </trkpt>
      <trkpt lat="49.39473" lon="-0.98271">
        <ele>34</ele>
        <time>2023-07-24T11:41:08Z</time>
      </trkpt>
      <trkpt lat="49.39481" lon="-0.98289">
        <ele>34</ele>
        <time>2023-07-24T11:41:23Z</time>
      </trkpt>
      <trkpt lat="49.39492" lon="-0.98307">
        <ele>33</ele>
        <time>2023-07-24T11:41:37Z</time>
      </trkpt>
      <trkpt lat="49.39494" lon="-0.98312">
        <ele>34</ele>
        <time>2023-07-24T11:41:41Z</time>
      </trkpt>
      <trkpt lat="49.39511" lon="-0.98369">
        <ele>34</ele>
        <time>2023-07-24T11:42:13Z</time>
      </trkpt>
      <trkpt lat="49.39513" lon="-0.98375">
        <ele>34</ele>
        <time>2023-07-24T11:42:17Z</time>
      </trkpt>
      <trkpt lat="49.39516" lon="-0.98381">
        <ele>34</ele>
        <time>2023-07-24T11:42:21Z</time>
      </trkpt>
      <trkpt lat="49.39517" lon="-0.98389">
        <ele>34</ele>
        <time>2023-07-24T11:42:25Z</time>
      </trkpt>
      <trkpt lat="49.39517" lon="-0.98396">
        <ele>34</ele>
        <time>2023-07-24T11:42:29Z</time>
      </trkpt>
      <trkpt lat="49.39507" lon="-0.98421">
        <ele>34</ele>
        <time>2023-07-24T11:42:45Z</time>
      </trkpt>
      <trkpt lat="49.39506" lon="-0.98428">
        <ele>33</ele>
        <time>2023-07-24T11:42:49Z</time>
      </trkpt>
      <trkpt lat="49.39504" lon="-0.98435">
        <ele>33</ele>
        <time>2023-07-24T11:42:53Z</time>
      </trkpt>
      <trkpt lat="49.39505" lon="-0.98442">
        <ele>34</ele>
        <time>2023-07-24T11:42:57Z</time>
      </trkpt>
      <trkpt lat="49.39507" lon="-0.98456">
        <ele>34</ele>
        <time>2023-07-24T11:43:05Z</time>
      </trkpt>
      <trkpt lat="49.39509" lon="-0.98462">
        <ele>33</ele>
        <time>2023-07-24T11:43:09Z</time>
      </trkpt>
      <trkpt lat="49.39512" lon="-0.98476">
        <ele>34</ele>
        <time>2023-07-24T11:43:17Z</time>
      </trkpt>
      <trkpt lat="49.39512" lon="-0.98483">
        <ele>34</ele>
        <time>2023-07-24T11:43:21Z</time>
      </trkpt>
      <trkpt lat="49.39512" lon="-0.98498">
        <ele>34</ele>
        <time>2023-07-24T11:43:30Z</time>
      </trkpt>
      <trkpt lat="49.3951" lon="-0.98504">
        <ele>34</ele>
        <time>2023-07-24T11:43:34Z</time>
      </trkpt>
      <trkpt lat="49.39507" lon="-0.9851">
        <ele>34</ele>
        <time>2023-07-24T11:43:38Z</time>
      </trkpt>
      <trkpt lat="49.39503" lon="-0.98512">
        <ele>34</ele>
        <time>2023-07-24T11:43:42Z</time>
      </trkpt>
      <trkpt lat="49.39498" lon="-0.98516">
        <ele>34</ele>
        <time>2023-07-24T11:43:47Z</time>
      </trkpt>
      <trkpt lat="49.39494" lon="-0.98517">
        <ele>34</ele>
        <time>2023-07-24T11:43:51Z</time>
      </trkpt>
      <trkpt lat="49.39486" lon="-0.98525">
        <ele>34</ele>
        <time>2023-07-24T11:43:59Z</time>
      </trkpt>
      <trkpt lat="49.39482" lon="-0.98528">
        <ele>34</ele>
        <time>2023-07-24T11:44:03Z</time>
      </trkpt>
      <trkpt lat="49.39477" lon="-0.9853">
        <ele>34</ele>
        <time>2023-07-24T11:44:07Z</time>
      </trkpt>
      <trkpt lat="49.39464" lon="-0.98533">
        <ele>34</ele>
        <time>2023-07-24T11:44:19Z</time>
      </trkpt>
      <trkpt lat="49.39428" lon="-0.98529">
        <ele>34</ele>
        <time>2023-07-24T11:44:51Z</time>
      </trkpt>
      <trkpt lat="49.39417" lon="-0.98526">
        <ele>34</ele>
        <time>2023-07-24T11:45:02Z</time>
      </trkpt>
      <trkpt lat="49.39408" lon="-0.98529">
        <ele>34</ele>
        <time>2023-07-24T11:45:10Z</time>
      </trkpt>
      <trkpt lat="49.39404" lon="-0.98532">
        <ele>34</ele>
        <time>2023-07-24T11:45:14Z</time>
      </trkpt>
      <trkpt lat="49.39386" lon="-0.98542">
        <ele>35</ele>
        <time>2023-07-24T11:45:30Z</time>
      </trkpt>
      <trkpt lat="49.39377" lon="-0.98545">
        <ele>35</ele>
        <time>2023-07-24T11:45:38Z</time>
      </trkpt>
      <trkpt lat="49.3934" lon="-0.98549">
        <ele>34</ele>
        <time>2023-07-24T11:46:10Z</time>
      </trkpt>
      <trkpt lat="49.3933" lon="-0.98551">
        <ele>34</ele>
        <time>2023-07-24T11:46:18Z</time>
      </trkpt>
      <trkpt lat="49.39308" lon="-0.9856">
        <ele>34</ele>
        <time>2023-07-24T11:46:39Z</time>
      </trkpt>
      <trkpt lat="49.39276" lon="-0.98561">
        <ele>34</ele>
        <time>2023-07-24T11:47:07Z</time>
      </trkpt>
      <trkpt lat="49.39272" lon="-0.98561">
        <ele>34</ele>
        <time>2023-07-24T11:47:11Z</time>
      </trkpt>
      <trkpt lat="49.39264" lon="-0.98569">
        <ele>33</ele>
        <time>2023-07-24T11:47:19Z</time>
      </trkpt>
      <trkpt lat="49.39262" lon="-0.98576">
        <ele>33</ele>
        <time>2023-07-24T11:47:23Z</time>
      </trkpt>
      <trkpt lat="49.39262" lon="-0.9862">
        <ele>34</ele>
        <time>2023-07-24T11:47:49Z</time>
      </trkpt>
      <trkpt lat="49.39263" lon="-0.98627">
        <ele>34</ele>
        <time>2023-07-24T11:47:53Z</time>
      </trkpt>
      <trkpt lat="49.39264" lon="-0.98683">
        <ele>34</ele>
        <time>2023-07-24T11:48:26Z</time>
      </trkpt>
      <trkpt lat="49.39266" lon="-0.98697">
        <ele>34</ele>
        <time>2023-07-24T11:48:34Z</time>
      </trkpt>
      <trkpt lat="49.39271" lon="-0.987">
        <ele>34</ele>
        <time>2023-07-24T11:48:38Z</time>
      </trkpt>
      <trkpt lat="49.39273" lon="-0.98706">
        <ele>34</ele>
        <time>2023-07-24T11:48:42Z</time>
      </trkpt>
      <trkpt lat="49.39277" lon="-0.98709">
        <ele>34</ele>
        <time>2023-07-24T11:48:46Z</time>
      </trkpt>
      <trkpt lat="49.39279" lon="-0.98716">
        <ele>34</ele>
        <time>2023-07-24T11:48:50Z</time>
      </trkpt>
      <trkpt lat="49.3928" lon="-0.98724">
        <ele>33</ele>
        <time>2023-07-24T11:48:55Z</time>
      </trkpt>
      <trkpt lat="49.3928" lon="-0.98738">
        <ele>34</ele>
        <time>2023-07-24T11:49:04Z</time>
      </trkpt>
      <trkpt lat="49.39282" lon="-0.98793">
        <ele>34</ele>
        <time>2023-07-24T11:49:36Z</time>
      </trkpt>
      <trkpt lat="49.39282" lon="-0.98807">
        <ele>34</ele>
        <time>2023-07-24T11:49:45Z</time>
      </trkpt>
      <trkpt lat="49.39283" lon="-0.98814">
        <ele>34</ele>
        <time>2023-07-24T11:49:49Z</time>
      </trkpt>
      <trkpt lat="49.39284" lon="-0.98836">
        <ele>34</ele>
        <time>2023-07-24T11:50:01Z</time>
      </trkpt>
      <trkpt lat="49.39284" lon="-0.98842">
        <ele>34</ele>
        <time>2023-07-24T11:50:05Z</time>
      </trkpt>
      <trkpt lat="49.39286" lon="-0.98883">
        <ele>34</ele>
        <time>2023-07-24T11:50:29Z</time>
      </trkpt>
      <trkpt lat="49.39286" lon="-0.9889">
        <ele>33</ele>
        <time>2023-07-24T11:50:33Z</time>
      </trkpt>
      <trkpt lat="49.39286" lon="-0.98904">
        <ele>34</ele>
        <time>2023-07-24T11:50:41Z</time>
      </trkpt>
      <trkpt lat="49.39286" lon="-0.98925">
        <ele>33</ele>
        <time>2023-07-24T11:50:53Z</time>
      </trkpt>
      <trkpt lat="49.39287" lon="-0.98932">
        <ele>33</ele>
        <time>2023-07-24T11:50:57Z</time>
      </trkpt>
      <trkpt lat="49.39288" lon="-0.98983">
        <ele>33</ele>
        <time>2023-07-24T11:51:26Z</time>
      </trkpt>
      <trkpt lat="49.39294" lon="-0.98989">
        <ele>34</ele>
        <time>2023-07-24T11:51:46Z</time>
      </trkpt>
      <trkpt lat="49.39298" lon="-0.98991">
        <ele>34</ele>
        <time>2023-07-24T11:52:55Z</time>
      </trkpt>
      <trkpt lat="49.39297" lon="-0.99">
        <ele>33</ele>
        <time>2023-07-24T11:53:09Z</time>
      </trkpt>
      <trkpt lat="49.39297" lon="-0.99008">
        <ele>33</ele>
        <time>2023-07-24T11:53:13Z</time>
      </trkpt>
      <trkpt lat="49.39296" lon="-0.99016">
        <ele>33</ele>
        <time>2023-07-24T11:53:17Z</time>
      </trkpt>
      <trkpt lat="49.393" lon="-0.99019">
        <ele>33</ele>
        <time>2023-07-24T11:53:21Z</time>
      </trkpt>
      <trkpt lat="49.39326" lon="-0.99002">
        <ele>34</ele>
        <time>2023-07-24T11:53:45Z</time>
      </trkpt>
      <trkpt lat="49.39344" lon="-0.98987">
        <ele>34</ele>
        <time>2023-07-24T11:54:01Z</time>
      </trkpt>
      <trkpt lat="49.39349" lon="-0.98988">
        <ele>34</ele>
        <time>2023-07-24T11:54:06Z</time>
      </trkpt>
      <trkpt lat="49.39352" lon="-0.98992">
        <ele>34</ele>
        <time>2023-07-24T11:54:10Z</time>
      </trkpt>
      <trkpt lat="49.39357" lon="-0.98991">
        <ele>34</ele>
        <time>2023-07-24T11:54:14Z</time>
      </trkpt>
      <trkpt lat="49.39376" lon="-0.98977">
        <ele>33</ele>
        <time>2023-07-24T11:54:35Z</time>
      </trkpt>
      <trkpt lat="49.3938" lon="-0.98973">
        <ele>33</ele>
        <time>2023-07-24T11:54:39Z</time>
      </trkpt>
      <trkpt lat="49.39397" lon="-0.98962">
        <ele>33</ele>
        <time>2023-07-24T11:54:55Z</time>
      </trkpt>
      <trkpt lat="49.39411" lon="-0.98958">
        <ele>32</ele>
        <time>2023-07-24T11:55:07Z</time>
      </trkpt>
      <trkpt lat="49.39415" lon="-0.98959">
        <ele>32</ele>
        <time>2023-07-24T11:55:11Z</time>
      </trkpt>
      <trkpt lat="49.3942" lon="-0.98963">
        <ele>32</ele>
        <time>2023-07-24T11:55:16Z</time>
      </trkpt>
      <trkpt lat="49.39426" lon="-0.98982">
        <ele>32</ele>
        <time>2023-07-24T11:55:30Z</time>
      </trkpt>
      <trkpt lat="49.39427" lon="-0.98997">
        <ele>32</ele>
        <time>2023-07-24T11:55:38Z</time>
      </trkpt>
      <trkpt lat="49.39429" lon="-0.99018">
        <ele>32</ele>
        <time>2023-07-24T11:55:51Z</time>
      </trkpt>
      <trkpt lat="49.39435" lon="-0.99068">
        <ele>31</ele>
        <time>2023-07-24T11:56:21Z</time>
      </trkpt>
      <trkpt lat="49.39439" lon="-0.99094">
        <ele>31</ele>
        <time>2023-07-24T11:56:37Z</time>
      </trkpt>
      <trkpt lat="49.39448" lon="-0.99148">
        <ele>31</ele>
        <time>2023-07-24T11:57:09Z</time>
      </trkpt>
      <trkpt lat="49.39456" lon="-0.99203">
        <ele>31</ele>
        <time>2023-07-24T11:57:41Z</time>
      </trkpt>
      <trkpt lat="49.39457" lon="-0.9921">
        <ele>31</ele>
        <time>2023-07-24T11:57:45Z</time>
      </trkpt>
      <trkpt lat="49.39462" lon="-0.99265">
        <ele>31</ele>
        <time>2023-07-24T11:58:17Z</time>
      </trkpt>
      <trkpt lat="49.39464" lon="-0.99279">
        <ele>31</ele>
        <time>2023-07-24T11:58:25Z</time>
      </trkpt>
      <trkpt lat="49.39463" lon="-0.99293">
        <ele>30</ele>
        <time>2023-07-24T11:58:33Z</time>
      </trkpt>
      <trkpt lat="49.39454" lon="-0.99349">
        <ele>30</ele>
        <time>2023-07-24T11:59:05Z</time>
      </trkpt>
      <trkpt lat="49.39451" lon="-0.99368">
        <ele>31</ele>
        <time>2023-07-24T11:59:17Z</time>
      </trkpt>
      <trkpt lat="49.39444" lon="-0.99423">
        <ele>30</ele>
        <time>2023-07-24T11:59:49Z</time>
      </trkpt>
      <trkpt lat="49.39436" lon="-0.99477">
        <ele>30</ele>
        <time>2023-07-24T12:00:21Z</time>
      </trkpt>
      <trkpt lat="49.39432" lon="-0.99511">
        <ele>30</ele>
        <time>2023-07-24T12:00:41Z</time>
      </trkpt>
      <trkpt lat="49.39431" lon="-0.99518">
        <ele>29</ele>
        <time>2023-07-24T12:00:45Z</time>
      </trkpt>
      <trkpt lat="49.39429" lon="-0.99559">
        <ele>29</ele>
        <time>2023-07-24T12:01:10Z</time>
      </trkpt>
      <trkpt lat="49.39429" lon="-0.99566">
        <ele>28</ele>
        <time>2023-07-24T12:01:14Z</time>
      </trkpt>
      <trkpt lat="49.39431" lon="-0.99616">
        <ele>29</ele>
        <time>2023-07-24T12:01:44Z</time>
      </trkpt>
      <trkpt lat="49.39433" lon="-0.99631">
        <ele>29</ele>
        <time>2023-07-24T12:01:53Z</time>
      </trkpt>
      <trkpt lat="49.39433" lon="-0.99637">
        <ele>28</ele>
        <time>2023-07-24T12:01:57Z</time>
      </trkpt>
      <trkpt lat="49.39434" lon="-0.99645">
        <ele>29</ele>
        <time>2023-07-24T12:02:02Z</time>
      </trkpt>
      <trkpt lat="49.39446" lon="-0.99698">
        <ele>27</ele>
        <time>2023-07-24T12:02:35Z</time>
      </trkpt>
      <trkpt lat="49.39451" lon="-0.99719">
        <ele>28</ele>
        <time>2023-07-24T12:02:48Z</time>
      </trkpt>
      <trkpt lat="49.39464" lon="-0.99765">
        <ele>27</ele>
        <time>2023-07-24T12:03:18Z</time>
      </trkpt>
      <trkpt lat="49.39478" lon="-0.99811">
        <ele>27</ele>
        <time>2023-07-24T12:03:49Z</time>
      </trkpt>
      <trkpt lat="49.39492" lon="-0.99858">
        <ele>27</ele>
        <time>2023-07-24T12:04:21Z</time>
      </trkpt>
      <trkpt lat="49.39501" lon="-0.99893">
        <ele>26</ele>
        <time>2023-07-24T12:04:45Z</time>
      </trkpt>
      <trkpt lat="49.39502" lon="-0.99899">
        <ele>27</ele>
        <time>2023-07-24T12:04:49Z</time>
      </trkpt>
      <trkpt lat="49.39507" lon="-0.99913">
        <ele>26</ele>
        <time>2023-07-24T12:04:59Z</time>
      </trkpt>
      <trkpt lat="49.39509" lon="-0.9992">
        <ele>26</ele>
        <time>2023-07-24T12:05:04Z</time>
      </trkpt>
      <trkpt lat="49.39517" lon="-0.99947">
        <ele>25</ele>
        <time>2023-07-24T12:05:22Z</time>
      </trkpt>
      <trkpt lat="49.39521" lon="-0.9996">
        <ele>26</ele>
        <time>2023-07-24T12:05:31Z</time>
      </trkpt>
      <trkpt lat="49.39523" lon="-0.99968">
        <ele>25</ele>
        <time>2023-07-24T12:05:36Z</time>
      </trkpt>
      <trkpt lat="49.39526" lon="-0.99981">
        <ele>26</ele>
        <time>2023-07-24T12:05:44Z</time>
      </trkpt>
      <trkpt lat="49.39528" lon="-0.99987">
        <ele>25</ele>
        <time>2023-07-24T12:05:48Z</time>
      </trkpt>
      <trkpt lat="49.39529" lon="-0.99993">
        <ele>26</ele>
        <time>2023-07-24T12:05:52Z</time>
      </trkpt>
      <trkpt lat="49.39543" lon="-1.0004">
        <ele>25</ele>
        <time>2023-07-24T12:06:24Z</time>
      </trkpt>
      <trkpt lat="49.39552" lon="-1.0009">
        <ele>25</ele>
        <time>2023-07-24T12:06:56Z</time>
      </trkpt>
      <trkpt lat="49.39559" lon="-1.00143">
        <ele>24</ele>
        <time>2023-07-24T12:07:30Z</time>
      </trkpt>
      <trkpt lat="49.39561" lon="-1.00158">
        <ele>24</ele>
        <time>2023-07-24T12:07:40Z</time>
      </trkpt>
      <trkpt lat="49.39567" lon="-1.00207">
        <ele>23</ele>
        <time>2023-07-24T12:08:10Z</time>
      </trkpt>
      <trkpt lat="49.39574" lon="-1.00258">
        <ele>23</ele>
        <time>2023-07-24T12:08:42Z</time>
      </trkpt>
      <trkpt lat="49.39575" lon="-1.00264">
        <ele>22</ele>
        <time>2023-07-24T12:08:46Z</time>
      </trkpt>
      <trkpt lat="49.39582" lon="-1.00313">
        <ele>21</ele>
        <time>2023-07-24T12:09:17Z</time>
      </trkpt>
      <trkpt lat="49.39588" lon="-1.00363">
        <ele>21</ele>
        <time>2023-07-24T12:09:48Z</time>
      </trkpt>
      <trkpt lat="49.39594" lon="-1.00404">
        <ele>20</ele>
        <time>2023-07-24T12:10:14Z</time>
      </trkpt>
      <trkpt lat="49.39593" lon="-1.00412">
        <ele>20</ele>
        <time>2023-07-24T12:10:19Z</time>
      </trkpt>
      <trkpt lat="49.39594" lon="-1.00419">
        <ele>20</ele>
        <time>2023-07-24T12:10:23Z</time>
      </trkpt>
      <trkpt lat="49.39594" lon="-1.00426">
        <ele>20</ele>
        <time>2023-07-24T12:10:27Z</time>
      </trkpt>
      <trkpt lat="49.39594" lon="-1.00439">
        <ele>20</ele>
        <time>2023-07-24T12:10:35Z</time>
      </trkpt>
      <trkpt lat="49.39591" lon="-1.00493">
        <ele>20</ele>
        <time>2023-07-24T12:11:07Z</time>
      </trkpt>
      <trkpt lat="49.39587" lon="-1.00548">
        <ele>19</ele>
        <time>2023-07-24T12:11:40Z</time>
      </trkpt>
      <trkpt lat="49.39584" lon="-1.00602">
        <ele>19</ele>
        <time>2023-07-24T12:12:12Z</time>
      </trkpt>
      <trkpt lat="49.39581" lon="-1.00645">
        <ele>18</ele>
        <time>2023-07-24T12:13:17Z</time>
      </trkpt>
      <trkpt lat="49.39577" lon="-1.00702">
        <ele>17</ele>
        <time>2023-07-24T12:13:51Z</time>
      </trkpt>
      <trkpt lat="49.39572" lon="-1.00736">
        <ele>16</ele>
        <time>2023-07-24T12:14:11Z</time>
      </trkpt>
      <trkpt lat="49.39571" lon="-1.00742">
        <ele>16</ele>
        <time>2023-07-24T12:14:15Z</time>
      </trkpt>
      <trkpt lat="49.39568" lon="-1.00756">
        <ele>15</ele>
        <time>2023-07-24T12:14:23Z</time>
      </trkpt>
      <trkpt lat="49.39557" lon="-1.00794">
        <ele>15</ele>
        <time>2023-07-24T12:14:47Z</time>
      </trkpt>
      <trkpt lat="49.39554" lon="-1.00799">
        <ele>15</ele>
        <time>2023-07-24T12:14:51Z</time>
      </trkpt>
      <trkpt lat="49.39549" lon="-1.00809">
        <ele>15</ele>
        <time>2023-07-24T12:14:59Z</time>
      </trkpt>
      <trkpt lat="49.39545" lon="-1.00823">
        <ele>15</ele>
        <time>2023-07-24T12:15:08Z</time>
      </trkpt>
      <trkpt lat="49.39542" lon="-1.00839">
        <ele>16</ele>
        <time>2023-07-24T12:15:18Z</time>
      </trkpt>
      <trkpt lat="49.39529" lon="-1.00891">
        <ele>15</ele>
        <time>2023-07-24T12:15:51Z</time>
      </trkpt>
      <trkpt lat="49.39516" lon="-1.00943">
        <ele>15</ele>
        <time>2023-07-24T12:16:23Z</time>
      </trkpt>
      <trkpt lat="49.39503" lon="-1.00995">
        <ele>15</ele>
        <time>2023-07-24T12:16:56Z</time>
      </trkpt>
      <trkpt lat="49.3949" lon="-1.01046">
        <ele>14</ele>
        <time>2023-07-24T12:17:28Z</time>
      </trkpt>
      <trkpt lat="49.39488" lon="-1.01053">
        <ele>14</ele>
        <time>2023-07-24T12:17:32Z</time>
      </trkpt>
      <trkpt lat="49.39487" lon="-1.01059">
        <ele>14</ele>
        <time>2023-07-24T12:17:36Z</time>
      </trkpt>
      <trkpt lat="49.39485" lon="-1.01065">
        <ele>14</ele>
        <time>2023-07-24T12:17:40Z</time>
      </trkpt>
      <trkpt lat="49.39469" lon="-1.01115">
        <ele>14</ele>
        <time>2023-07-24T12:18:12Z</time>
      </trkpt>
      <trkpt lat="49.39463" lon="-1.01134">
        <ele>14</ele>
        <time>2023-07-24T12:18:24Z</time>
      </trkpt>
      <trkpt lat="49.39461" lon="-1.0114">
        <ele>14</ele>
        <time>2023-07-24T12:18:28Z</time>
      </trkpt>
      <trkpt lat="49.39445" lon="-1.0119">
        <ele>15</ele>
        <time>2023-07-24T12:19:00Z</time>
      </trkpt>
      <trkpt lat="49.3943" lon="-1.01241">
        <ele>14</ele>
        <time>2023-07-24T12:19:33Z</time>
      </trkpt>
      <trkpt lat="49.39418" lon="-1.01294">
        <ele>14</ele>
        <time>2023-07-24T12:20:05Z</time>
      </trkpt>
      <trkpt lat="49.3941" lon="-1.01334">
        <ele>14</ele>
        <time>2023-07-24T12:20:29Z</time>
      </trkpt>
      <trkpt lat="49.39408" lon="-1.01341">
        <ele>13</ele>
        <time>2023-07-24T12:20:33Z</time>
      </trkpt>
      <trkpt lat="49.39407" lon="-1.01349">
        <ele>14</ele>
        <time>2023-07-24T12:20:38Z</time>
      </trkpt>
      <trkpt lat="49.39396" lon="-1.01404">
        <ele>14</ele>
        <time>2023-07-24T12:21:11Z</time>
      </trkpt>
      <trkpt lat="49.39395" lon="-1.01411">
        <ele>14</ele>
        <time>2023-07-24T12:21:15Z</time>
      </trkpt>
      <trkpt lat="49.39383" lon="-1.01464">
        <ele>13</ele>
        <time>2023-07-24T12:21:47Z</time>
      </trkpt>
      <trkpt lat="49.39369" lon="-1.01516">
        <ele>12</ele>
        <time>2023-07-24T12:22:20Z</time>
      </trkpt>
      <trkpt lat="49.39347" lon="-1.01561">
        <ele>13</ele>
        <time>2023-07-24T12:22:52Z</time>
      </trkpt>
      <trkpt lat="49.39338" lon="-1.01582">
        <ele>12</ele>
        <time>2023-07-24T12:23:26Z</time>
      </trkpt>
      <trkpt lat="49.3933" lon="-1.01632">
        <ele>12</ele>
        <time>2023-07-24T12:23:57Z</time>
      </trkpt>
      <trkpt lat="49.39324" lon="-1.0169">
        <ele>11</ele>
        <time>2023-07-24T12:24:30Z</time>
      </trkpt>
      <trkpt lat="49.3932" lon="-1.01746">
        <ele>11</ele>
        <time>2023-07-24T12:25:02Z</time>
      </trkpt>
      <trkpt lat="49.39319" lon="-1.01803">
        <ele>10</ele>
        <time>2023-07-24T12:25:34Z</time>
      </trkpt>
      <trkpt lat="49.3932" lon="-1.0181">
        <ele>10</ele>
        <time>2023-07-24T12:25:38Z</time>
      </trkpt>
      <trkpt lat="49.39322" lon="-1.01816">
        <ele>10</ele>
        <time>2023-07-24T12:25:42Z</time>
      </trkpt>
      <trkpt lat="49.39337" lon="-1.01842">
        <ele>7</ele>
        <time>2023-07-24T12:26:02Z</time>
      </trkpt>
      <trkpt lat="49.39338" lon="-1.0185">
        <ele>7</ele>
        <time>2023-07-24T12:26:07Z</time>
      </trkpt>
      <trkpt lat="49.39338" lon="-1.01857">
        <ele>6</ele>
        <time>2023-07-24T12:26:11Z</time>
      </trkpt>
      <trkpt lat="49.39334" lon="-1.01913">
        <ele>4</ele>
        <time>2023-07-24T12:26:43Z</time>
      </trkpt>
      <trkpt lat="49.39334" lon="-1.0192">
        <ele>3</ele>
        <time>2023-07-24T12:26:47Z</time>
      </trkpt>
      <trkpt lat="49.39334" lon="-1.01927">
        <ele>3</ele>
        <time>2023-07-24T12:26:51Z</time>
      </trkpt>
      <trkpt lat="49.3934" lon="-1.01924">
        <ele>4</ele>
        <time>2023-07-24T12:27:05Z</time>
      </trkpt>
      <trkpt lat="49.39342" lon="-1.01931">
        <ele>4</ele>
        <time>2023-07-24T12:27:10Z</time>
      </trkpt>
      <trkpt lat="49.39343" lon="-1.01938">
        <ele>4</ele>
        <time>2023-07-24T12:27:14Z</time>
      </trkpt>
      <trkpt lat="49.39343" lon="-1.01974">
        <ele>4</ele>
        <time>2023-07-24T12:27:46Z</time>
      </trkpt>
      <trkpt lat="49.39345" lon="-1.0198">
        <ele>4</ele>
        <time>2023-07-24T12:27:51Z</time>
      </trkpt>
      <trkpt lat="49.39345" lon="-1.01987">
        <ele>4</ele>
        <time>2023-07-24T12:27:56Z</time>
      </trkpt>
      <trkpt lat="49.39344" lon="-1.01995">
        <ele>4</ele>
        <time>2023-07-24T12:28:01Z</time>
      </trkpt>
      <trkpt lat="49.39345" lon="-1.02047">
        <ele>3</ele>
        <time>2023-07-24T12:28:33Z</time>
      </trkpt>
      <trkpt lat="49.39344" lon="-1.02061">
        <ele>3</ele>
        <time>2023-07-24T12:28:42Z</time>
      </trkpt>
      <trkpt lat="49.3934" lon="-1.02064">
        <ele>4</ele>
        <time>2023-07-24T12:31:05Z</time>
      </trkpt>
      <trkpt lat="49.39328" lon="-1.02067">
        <ele>5</ele>
        <time>2023-07-24T12:31:20Z</time>
      </trkpt>
      <trkpt lat="49.39323" lon="-1.02069">
        <ele>5</ele>
        <time>2023-07-24T12:31:25Z</time>
      </trkpt>
      <trkpt lat="49.39318" lon="-1.0207">
        <ele>5</ele>
        <time>2023-07-24T12:31:30Z</time>
      </trkpt>
      <trkpt lat="49.39312" lon="-1.02074">
        <ele>5</ele>
        <time>2023-07-24T12:31:37Z</time>
      </trkpt>
      <trkpt lat="49.39305" lon="-1.02083">
        <ele>4</ele>
        <time>2023-07-24T12:31:47Z</time>
      </trkpt>
      <trkpt lat="49.39299" lon="-1.02095">
        <ele>4</ele>
        <time>2023-07-24T12:31:56Z</time>
      </trkpt>
      <trkpt lat="49.3929" lon="-1.02142">
        <ele>4</ele>
        <time>2023-07-24T12:32:26Z</time>
      </trkpt>
      <trkpt lat="49.3928" lon="-1.0219">
        <ele>5</ele>
        <time>2023-07-24T12:32:56Z</time>
      </trkpt>
      <trkpt lat="49.39278" lon="-1.02197">
        <ele>5</ele>
        <time>2023-07-24T12:33:01Z</time>
      </trkpt>
      <trkpt lat="49.39261" lon="-1.02247">
        <ele>6</ele>
        <time>2023-07-24T12:33:36Z</time>
      </trkpt>
      <trkpt lat="49.39245" lon="-1.02287">
        <ele>7</ele>
        <time>2023-07-24T12:34:07Z</time>
      </trkpt>
      <trkpt lat="49.39235" lon="-1.02312">
        <ele>7</ele>
        <time>2023-07-24T12:34:41Z</time>
      </trkpt>
      <trkpt lat="49.39227" lon="-1.02335">
        <ele>7</ele>
        <time>2023-07-24T12:35:01Z</time>
      </trkpt>
      <trkpt lat="49.39221" lon="-1.02342">
        <ele>6</ele>
        <time>2023-07-24T12:38:04Z</time>
      </trkpt>
      <trkpt lat="49.39203" lon="-1.02383">
        <ele>6</ele>
        <time>2023-07-24T12:38:34Z</time>
      </trkpt>
      <trkpt lat="49.39196" lon="-1.02403">
        <ele>6</ele>
        <time>2023-07-24T12:38:48Z</time>
      </trkpt>
      <trkpt lat="49.39195" lon="-1.0241">
        <ele>6</ele>
        <time>2023-07-24T12:38:52Z</time>
      </trkpt>
      <trkpt lat="49.39192" lon="-1.02459">
        <ele>6</ele>
        <time>2023-07-24T12:39:22Z</time>
      </trkpt>
      <trkpt lat="49.39188" lon="-1.02514">
        <ele>5</ele>
        <time>2023-07-24T12:39:54Z</time>
      </trkpt>
      <trkpt lat="49.39186" lon="-1.02542">
        <ele>4</ele>
        <time>2023-07-24T12:40:10Z</time>
      </trkpt>
      <trkpt lat="49.39184" lon="-1.02553">
        <ele>4</ele>
        <time>2023-07-24T12:40:23Z</time>
      </trkpt>
      <trkpt lat="49.39179" lon="-1.02565">
        <ele>4</ele>
        <time>2023-07-24T12:40:31Z</time>
      </trkpt>
      <trkpt lat="49.39175" lon="-1.02569">
        <ele>4</ele>
        <time>2023-07-24T12:40:35Z</time>
      </trkpt>
      <trkpt lat="49.39142" lon="-1.02595">
        <ele>5</ele>
        <time>2023-07-24T12:41:08Z</time>
      </trkpt>
      <trkpt lat="49.39111" lon="-1.0262">
        <ele>6</ele>
        <time>2023-07-24T12:41:40Z</time>
      </trkpt>
      <trkpt lat="49.3908" lon="-1.02645">
        <ele>6</ele>
        <time>2023-07-24T12:42:12Z</time>
      </trkpt>
      <trkpt lat="49.3905" lon="-1.02669">
        <ele>7</ele>
        <time>2023-07-24T12:42:43Z</time>
      </trkpt>
      <trkpt lat="49.39046" lon="-1.02673">
        <ele>7</ele>
        <time>2023-07-24T12:42:47Z</time>
      </trkpt>
      <trkpt lat="49.39018" lon="-1.02699">
        <ele>9</ele>
        <time>2023-07-24T12:43:17Z</time>
      </trkpt>
      <trkpt lat="49.3899" lon="-1.02725">
        <ele>10</ele>
        <time>2023-07-24T12:43:48Z</time>
      </trkpt>
      <trkpt lat="49.38969" lon="-1.02747">
        <ele>11</ele>
        <time>2023-07-24T12:44:24Z</time>
      </trkpt>
      <trkpt lat="49.38965" lon="-1.02762">
        <ele>11</ele>
        <time>2023-07-24T12:44:36Z</time>
      </trkpt>
      <trkpt lat="49.38953" lon="-1.028">
        <ele>11</ele>
        <time>2023-07-24T12:45:00Z</time>
      </trkpt>
      <trkpt lat="49.38949" lon="-1.02805">
        <ele>11</ele>
        <time>2023-07-24T12:45:05Z</time>
      </trkpt>
      <trkpt lat="49.38943" lon="-1.02809">
        <ele>11</ele>
        <time>2023-07-24T12:45:12Z</time>
      </trkpt>
      <trkpt lat="49.38934" lon="-1.02811">
        <ele>11</ele>
        <time>2023-07-24T12:45:21Z</time>
      </trkpt>
      <trkpt lat="49.38914" lon="-1.02806">
        <ele>12</ele>
        <time>2023-07-24T12:45:41Z</time>
      </trkpt>
      <trkpt lat="49.38885" lon="-1.02791">
        <ele>13</ele>
        <time>2023-07-24T12:46:13Z</time>
      </trkpt>
      <trkpt lat="49.3888" lon="-1.0279">
        <ele>13</ele>
        <time>2023-07-24T12:47:18Z</time>
      </trkpt>
      <trkpt lat="49.38875" lon="-1.02787">
        <ele>13</ele>
        <time>2023-07-24T12:49:35Z</time>
      </trkpt>
      <trkpt lat="49.3887" lon="-1.02785">
        <ele>14</ele>
        <time>2023-07-24T12:49:40Z</time>
      </trkpt>
      <trkpt lat="49.38861" lon="-1.0278">
        <ele>14</ele>
        <time>2023-07-24T12:49:49Z</time>
      </trkpt>
      <trkpt lat="49.38857" lon="-1.02776">
        <ele>14</ele>
        <time>2023-07-24T12:49:53Z</time>
      </trkpt>
      <trkpt lat="49.38848" lon="-1.02777">
        <ele>14</ele>
        <time>2023-07-24T12:50:02Z</time>
      </trkpt>
      <trkpt lat="49.38846" lon="-1.02783">
        <ele>14</ele>
        <time>2023-07-24T12:50:06Z</time>
      </trkpt>
      <trkpt lat="49.38836" lon="-1.02837">
        <ele>15</ele>
        <time>2023-07-24T12:50:42Z</time>
      </trkpt>
      <trkpt lat="49.38831" lon="-1.02864">
        <ele>15</ele>
        <time>2023-07-24T12:50:59Z</time>
      </trkpt>
      <trkpt lat="49.38834" lon="-1.02876">
        <ele>15</ele>
        <time>2023-07-24T12:51:06Z</time>
      </trkpt>
      <trkpt lat="49.3884" lon="-1.02881">
        <ele>15</ele>
        <time>2023-07-24T12:51:31Z</time>
      </trkpt>
      <trkpt lat="49.38845" lon="-1.02884">
        <ele>15</ele>
        <time>2023-07-24T12:51:36Z</time>
      </trkpt>
      <trkpt lat="49.38849" lon="-1.02884">
        <ele>15</ele>
        <time>2023-07-24T12:51:40Z</time>
      </trkpt>
      <trkpt lat="49.38863" lon="-1.02886">
        <ele>14</ele>
        <time>2023-07-24T12:51:52Z</time>
      </trkpt>
      <trkpt lat="49.38867" lon="-1.02888">
        <ele>14</ele>
        <time>2023-07-24T12:51:56Z</time>
      </trkpt>
      <trkpt lat="49.38876" lon="-1.02894">
        <ele>14</ele>
        <time>2023-07-24T12:52:04Z</time>
      </trkpt>
      <trkpt lat="49.38899" lon="-1.02905">
        <ele>13</ele>
        <time>2023-07-24T12:52:26Z</time>
      </trkpt>
      <trkpt lat="49.38916" lon="-1.02915">
        <ele>13</ele>
        <time>2023-07-24T12:52:50Z</time>
      </trkpt>
      <trkpt lat="49.38925" lon="-1.02922">
        <ele>13</ele>
        <time>2023-07-24T12:52:58Z</time>
      </trkpt>
      <trkpt lat="49.38931" lon="-1.02931">
        <ele>12</ele>
        <time>2023-07-24T12:53:06Z</time>
      </trkpt>
      <trkpt lat="49.38935" lon="-1.02932">
        <ele>12</ele>
        <time>2023-07-24T12:53:10Z</time>
      </trkpt>
      <trkpt lat="49.3894" lon="-1.02934">
        <ele>12</ele>
        <time>2023-07-24T12:53:14Z</time>
      </trkpt>
      <trkpt lat="49.38944" lon="-1.02936">
        <ele>12</ele>
        <time>2023-07-24T12:53:18Z</time>
      </trkpt>
      <trkpt lat="49.38941" lon="-1.02933">
        <ele>12</ele>
        <time>2023-07-24T12:54:28Z</time>
      </trkpt>
      <trkpt lat="49.38936" lon="-1.02932">
        <ele>12</ele>
        <time>2023-07-24T12:54:32Z</time>
      </trkpt>
      <trkpt lat="49.38932" lon="-1.02934">
        <ele>13</ele>
        <time>2023-07-24T12:54:37Z</time>
      </trkpt>
      <trkpt lat="49.38928" lon="-1.0294">
        <ele>13</ele>
        <time>2023-07-24T12:54:42Z</time>
      </trkpt>
      <trkpt lat="49.38925" lon="-1.02946">
        <ele>13</ele>
        <time>2023-07-24T12:54:47Z</time>
      </trkpt>
      <trkpt lat="49.3892" lon="-1.02962">
        <ele>14</ele>
        <time>2023-07-24T12:55:08Z</time>
      </trkpt>
      <trkpt lat="49.38912" lon="-1.02971">
        <ele>14</ele>
        <time>2023-07-24T12:55:18Z</time>
      </trkpt>
      <trkpt lat="49.3891" lon="-1.02977">
        <ele>15</ele>
        <time>2023-07-24T12:55:23Z</time>
      </trkpt>
      <trkpt lat="49.38909" lon="-1.02984">
        <ele>15</ele>
        <time>2023-07-24T12:55:27Z</time>
      </trkpt>
      <trkpt lat="49.38909" lon="-1.02991">
        <ele>15</ele>
        <time>2023-07-24T12:55:45Z</time>
      </trkpt>
      <trkpt lat="49.38908" lon="-1.03003">
        <ele>15</ele>
        <time>2023-07-24T12:56:25Z</time>
      </trkpt>
      <trkpt lat="49.38903" lon="-1.03055">
        <ele>16</ele>
        <time>2023-07-24T12:56:55Z</time>
      </trkpt>
      <trkpt lat="49.38898" lon="-1.03083">
        <ele>16</ele>
        <time>2023-07-24T12:57:11Z</time>
      </trkpt>
      <trkpt lat="49.38899" lon="-1.0309">
        <ele>16</ele>
        <time>2023-07-24T12:57:15Z</time>
      </trkpt>
      <trkpt lat="49.38897" lon="-1.03105">
        <ele>16</ele>
        <time>2023-07-24T12:57:23Z</time>
      </trkpt>
      <trkpt lat="49.38896" lon="-1.03119">
        <ele>16</ele>
        <time>2023-07-24T12:57:31Z</time>
      </trkpt>
      <trkpt lat="49.38897" lon="-1.03165">
        <ele>16</ele>
        <time>2023-07-24T12:58:17Z</time>
      </trkpt>
      <trkpt lat="49.38895" lon="-1.03224">
        <ele>15</ele>
        <time>2023-07-24T12:58:49Z</time>
      </trkpt>
      <trkpt lat="49.38896" lon="-1.03231">
        <ele>15</ele>
        <time>2023-07-24T12:58:53Z</time>
      </trkpt>
      <trkpt lat="49.38895" lon="-1.03239">
        <ele>15</ele>
        <time>2023-07-24T12:59:10Z</time>
      </trkpt>
      <trkpt lat="49.38895" lon="-1.03245">
        <ele>15</ele>
        <time>2023-07-24T12:59:14Z</time>
      </trkpt>
      <trkpt lat="49.38893" lon="-1.03259">
        <ele>14</ele>
        <time>2023-07-24T12:59:32Z</time>
      </trkpt>
      <trkpt lat="49.38894" lon="-1.03266">
        <ele>14</ele>
        <time>2023-07-24T12:59:36Z</time>
      </trkpt>
      <trkpt lat="49.38894" lon="-1.03274">
        <ele>14</ele>
        <time>2023-07-24T12:59:41Z</time>
      </trkpt>
      <trkpt lat="49.38893" lon="-1.03325">
        <ele>13</ele>
        <time>2023-07-24T13:00:11Z</time>
      </trkpt>
      <trkpt lat="49.38893" lon="-1.03332">
        <ele>13</ele>
        <time>2023-07-24T13:00:15Z</time>
      </trkpt>
      <trkpt lat="49.38892" lon="-1.03346">
        <ele>13</ele>
        <time>2023-07-24T13:00:23Z</time>
      </trkpt>
      <trkpt lat="49.38895" lon="-1.03353">
        <ele>13</ele>
        <time>2023-07-24T13:00:57Z</time>
      </trkpt>
      <trkpt lat="49.38893" lon="-1.03366">
        <ele>12</ele>
        <time>2023-07-24T13:01:05Z</time>
      </trkpt>
      <trkpt lat="49.38893" lon="-1.03373">
        <ele>12</ele>
        <time>2023-07-24T13:01:09Z</time>
      </trkpt>
      <trkpt lat="49.38891" lon="-1.03379">
        <ele>12</ele>
        <time>2023-07-24T13:01:13Z</time>
      </trkpt>
      <trkpt lat="49.3889" lon="-1.03395">
        <ele>12</ele>
        <time>2023-07-24T13:01:23Z</time>
      </trkpt>
      <trkpt lat="49.38889" lon="-1.03402">
        <ele>12</ele>
        <time>2023-07-24T13:01:27Z</time>
      </trkpt>
      <trkpt lat="49.38887" lon="-1.03423">
        <ele>11</ele>
        <time>2023-07-24T13:01:39Z</time>
      </trkpt>
      <trkpt lat="49.38879" lon="-1.03472">
        <ele>11</ele>
        <time>2023-07-24T13:02:12Z</time>
      </trkpt>
      <trkpt lat="49.38878" lon="-1.03478">
        <ele>11</ele>
        <time>2023-07-24T13:02:16Z</time>
      </trkpt>
      <trkpt lat="49.38877" lon="-1.03488">
        <ele>11</ele>
        <time>2023-07-24T13:02:41Z</time>
      </trkpt>
      <trkpt lat="49.38873" lon="-1.03508">
        <ele>11</ele>
        <time>2023-07-24T13:02:54Z</time>
      </trkpt>
      <trkpt lat="49.38876" lon="-1.03514">
        <ele>12</ele>
        <time>2023-07-24T13:03:09Z</time>
      </trkpt>
      <trkpt lat="49.38873" lon="-1.03522">
        <ele>12</ele>
        <time>2023-07-24T13:03:29Z</time>
      </trkpt>
      <trkpt lat="49.3887" lon="-1.03545">
        <ele>11</ele>
        <time>2023-07-24T13:03:43Z</time>
      </trkpt>
      <trkpt lat="49.38871" lon="-1.03551">
        <ele>11</ele>
        <time>2023-07-24T13:03:47Z</time>
      </trkpt>
      <trkpt lat="49.38871" lon="-1.03559">
        <ele>11</ele>
        <time>2023-07-24T13:03:51Z</time>
      </trkpt>
      <trkpt lat="49.38873" lon="-1.03564">
        <ele>11</ele>
        <time>2023-07-24T13:03:56Z</time>
      </trkpt>
      <trkpt lat="49.38871" lon="-1.03571">
        <ele>11</ele>
        <time>2023-07-24T13:04:07Z</time>
      </trkpt>
      <trkpt lat="49.38871" lon="-1.03578">
        <ele>11</ele>
        <time>2023-07-24T13:04:11Z</time>
      </trkpt>
      <trkpt lat="49.38868" lon="-1.03605">
        <ele>11</ele>
        <time>2023-07-24T13:04:28Z</time>
      </trkpt>
      <trkpt lat="49.38868" lon="-1.03598">
        <ele>11</ele>
        <time>2023-07-24T13:05:10Z</time>
      </trkpt>
      <trkpt lat="49.38873" lon="-1.03601">
        <ele>11</ele>
        <time>2023-07-24T13:05:19Z</time>
      </trkpt>
      <trkpt lat="49.38888" lon="-1.0361">
        <ele>10</ele>
        <time>2023-07-24T13:05:31Z</time>
      </trkpt>
      <trkpt lat="49.38897" lon="-1.0361">
        <ele>9</ele>
        <time>2023-07-24T13:05:40Z</time>
      </trkpt>
      <trkpt lat="49.38901" lon="-1.03614">
        <ele>9</ele>
        <time>2023-07-24T13:05:44Z</time>
      </trkpt>
      <trkpt lat="49.38905" lon="-1.03615">
        <ele>9</ele>
        <time>2023-07-24T13:05:49Z</time>
      </trkpt>
      <trkpt lat="49.3891" lon="-1.03618">
        <ele>9</ele>
        <time>2023-07-24T13:06:05Z</time>
      </trkpt>
      <trkpt lat="49.38915" lon="-1.03617">
        <ele>9</ele>
        <time>2023-07-24T13:06:09Z</time>
      </trkpt>
      <trkpt lat="49.38928" lon="-1.0362">
        <ele>8</ele>
        <time>2023-07-24T13:06:49Z</time>
      </trkpt>
      <trkpt lat="49.38933" lon="-1.03622">
        <ele>8</ele>
        <time>2023-07-24T13:06:54Z</time>
      </trkpt>
      <trkpt lat="49.38935" lon="-1.03627">
        <ele>7</ele>
        <time>2023-07-24T13:08:48Z</time>
      </trkpt>
      <trkpt lat="49.38934" lon="-1.03634">
        <ele>7</ele>
        <time>2023-07-24T13:08:52Z</time>
      </trkpt>
      <trkpt lat="49.38933" lon="-1.03645">
        <ele>7</ele>
        <time>2023-07-24T13:09:24Z</time>
      </trkpt>
      <trkpt lat="49.38932" lon="-1.03652">
        <ele>7</ele>
        <time>2023-07-24T13:09:28Z</time>
      </trkpt>
      <trkpt lat="49.38931" lon="-1.03674">
        <ele>7</ele>
        <time>2023-07-24T13:09:42Z</time>
      </trkpt>
      <trkpt lat="49.38931" lon="-1.03681">
        <ele>7</ele>
        <time>2023-07-24T13:09:47Z</time>
      </trkpt>
      <trkpt lat="49.38932" lon="-1.03688">
        <ele>6</ele>
        <time>2023-07-24T13:09:51Z</time>
      </trkpt>
      <trkpt lat="49.38931" lon="-1.03699">
        <ele>7</ele>
        <time>2023-07-24T13:10:07Z</time>
      </trkpt>
      <trkpt lat="49.38931" lon="-1.03707">
        <ele>6</ele>
        <time>2023-07-24T13:10:20Z</time>
      </trkpt>
      <trkpt lat="49.3893" lon="-1.03714">
        <ele>6</ele>
        <time>2023-07-24T13:10:24Z</time>
      </trkpt>
      <trkpt lat="49.38929" lon="-1.03748">
        <ele>6</ele>
        <time>2023-07-24T13:10:56Z</time>
      </trkpt>
      <trkpt lat="49.38925" lon="-1.03798">
        <ele>5</ele>
        <time>2023-07-24T13:11:28Z</time>
      </trkpt>
      <trkpt lat="49.38925" lon="-1.03805">
        <ele>5</ele>
        <time>2023-07-24T13:11:35Z</time>
      </trkpt>
      <trkpt lat="49.38924" lon="-1.03819">
        <ele>5</ele>
        <time>2023-07-24T13:11:49Z</time>
      </trkpt>
      <trkpt lat="49.38923" lon="-1.03827">
        <ele>6</ele>
        <time>2023-07-24T13:11:54Z</time>
      </trkpt>
      <trkpt lat="49.38924" lon="-1.03833">
        <ele>5</ele>
        <time>2023-07-24T13:12:12Z</time>
      </trkpt>
      <trkpt lat="49.38922" lon="-1.0385">
        <ele>6</ele>
        <time>2023-07-24T13:12:24Z</time>
      </trkpt>
      <trkpt lat="49.38922" lon="-1.03877">
        <ele>5</ele>
        <time>2023-07-24T13:14:48Z</time>
      </trkpt>
      <trkpt lat="49.3892" lon="-1.03884">
        <ele>5</ele>
        <time>2023-07-24T13:14:53Z</time>
      </trkpt>
      <trkpt lat="49.38918" lon="-1.03891">
        <ele>5</ele>
        <time>2023-07-24T13:14:58Z</time>
      </trkpt>
      <trkpt lat="49.38917" lon="-1.03898">
        <ele>5</ele>
        <time>2023-07-24T13:15:02Z</time>
      </trkpt>
      <trkpt lat="49.38913" lon="-1.03935">
        <ele>5</ele>
        <time>2023-07-24T13:15:24Z</time>
      </trkpt>
      <trkpt lat="49.38913" lon="-1.03942">
        <ele>5</ele>
        <time>2023-07-24T13:15:28Z</time>
      </trkpt>
      <trkpt lat="49.38914" lon="-1.03949">
        <ele>5</ele>
        <time>2023-07-24T13:15:42Z</time>
      </trkpt>
      <trkpt lat="49.38912" lon="-1.03963">
        <ele>4</ele>
        <time>2023-07-24T13:15:51Z</time>
      </trkpt>
      <trkpt lat="49.38912" lon="-1.03985">
        <ele>5</ele>
        <time>2023-07-24T13:16:03Z</time>
      </trkpt>
      <trkpt lat="49.38913" lon="-1.03992">
        <ele>5</ele>
        <time>2023-07-24T13:16:07Z</time>
      </trkpt>
      <trkpt lat="49.38918" lon="-1.03994">
        <ele>5</ele>
        <time>2023-07-24T13:16:11Z</time>
      </trkpt>
      <trkpt lat="49.3892" lon="-1.04004">
        <ele>5</ele>
        <time>2023-07-24T13:16:57Z</time>
      </trkpt>
      <trkpt lat="49.38919" lon="-1.0401">
        <ele>5</ele>
        <time>2023-07-24T13:17:01Z</time>
      </trkpt>
      <trkpt lat="49.38919" lon="-1.04018">
        <ele>5</ele>
        <time>2023-07-24T13:17:06Z</time>
      </trkpt>
      <trkpt lat="49.38919" lon="-1.04024">
        <ele>5</ele>
        <time>2023-07-24T13:17:10Z</time>
      </trkpt>
      <trkpt lat="49.38913" lon="-1.04033">
        <ele>5</ele>
        <time>2023-07-24T13:17:27Z</time>
      </trkpt>
      <trkpt lat="49.38912" lon="-1.0404">
        <ele>5</ele>
        <time>2023-07-24T13:17:31Z</time>
      </trkpt>
      <trkpt lat="49.38913" lon="-1.04055">
        <ele>5</ele>
        <time>2023-07-24T13:17:40Z</time>
      </trkpt>
      <trkpt lat="49.38913" lon="-1.0407">
        <ele>5</ele>
        <time>2023-07-24T13:17:50Z</time>
      </trkpt>
      <trkpt lat="49.38909" lon="-1.04085">
        <ele>6</ele>
        <time>2023-07-24T13:18:02Z</time>
      </trkpt>
      <trkpt lat="49.38904" lon="-1.04096">
        <ele>6</ele>
        <time>2023-07-24T13:18:11Z</time>
      </trkpt>
      <trkpt lat="49.38903" lon="-1.04103">
        <ele>7</ele>
        <time>2023-07-24T13:18:15Z</time>
      </trkpt>
      <trkpt lat="49.38901" lon="-1.04112">
        <ele>7</ele>
        <time>2023-07-24T13:18:22Z</time>
      </trkpt>
      <trkpt lat="49.389" lon="-1.0412">
        <ele>7</ele>
        <time>2023-07-24T13:18:27Z</time>
      </trkpt>
      <trkpt lat="49.38899" lon="-1.04128">
        <ele>7</ele>
        <time>2023-07-24T13:18:32Z</time>
      </trkpt>
      <trkpt lat="49.38896" lon="-1.04133">
        <ele>7</ele>
        <time>2023-07-24T13:18:37Z</time>
      </trkpt>
      <trkpt lat="49.38892" lon="-1.04138">
        <ele>7</ele>
        <time>2023-07-24T13:18:41Z</time>
      </trkpt>
      <trkpt lat="49.38887" lon="-1.0415">
        <ele>7</ele>
        <time>2023-07-24T13:18:50Z</time>
      </trkpt>
      <trkpt lat="49.38883" lon="-1.04154">
        <ele>7</ele>
        <time>2023-07-24T13:18:54Z</time>
      </trkpt>
      <trkpt lat="49.3888" lon="-1.04159">
        <ele>7</ele>
        <time>2023-07-24T13:18:59Z</time>
      </trkpt>
      <trkpt lat="49.38885" lon="-1.04173">
        <ele>6</ele>
        <time>2023-07-24T13:19:25Z</time>
      </trkpt>
      <trkpt lat="49.38886" lon="-1.0418">
        <ele>6</ele>
        <time>2023-07-24T13:19:30Z</time>
      </trkpt>
      <trkpt lat="49.38884" lon="-1.0419">
        <ele>7</ele>
        <time>2023-07-24T13:20:44Z</time>
      </trkpt>
      <trkpt lat="49.38879" lon="-1.042">
        <ele>7</ele>
        <time>2023-07-24T13:21:14Z</time>
      </trkpt>
      <trkpt lat="49.38873" lon="-1.04202">
        <ele>7</ele>
        <time>2023-07-24T13:21:46Z</time>
      </trkpt>
      <trkpt lat="49.38874" lon="-1.04209">
        <ele>7</ele>
        <time>2023-07-24T13:21:57Z</time>
      </trkpt>
      <trkpt lat="49.38871" lon="-1.04233">
        <ele>7</ele>
        <time>2023-07-24T13:22:15Z</time>
      </trkpt>
      <trkpt lat="49.38866" lon="-1.04246">
        <ele>7</ele>
        <time>2023-07-24T13:22:25Z</time>
      </trkpt>
      <trkpt lat="49.38862" lon="-1.04249">
        <ele>7</ele>
        <time>2023-07-24T13:22:29Z</time>
      </trkpt>
      <trkpt lat="49.38856" lon="-1.0426">
        <ele>7</ele>
        <time>2023-07-24T13:22:37Z</time>
      </trkpt>
      <trkpt lat="49.38854" lon="-1.04269">
        <ele>7</ele>
        <time>2023-07-24T13:22:44Z</time>
      </trkpt>
      <trkpt lat="49.38858" lon="-1.04274">
        <ele>7</ele>
        <time>2023-07-24T13:23:11Z</time>
      </trkpt>
      <trkpt lat="49.38856" lon="-1.0428">
        <ele>8</ele>
        <time>2023-07-24T13:23:57Z</time>
      </trkpt>
      <trkpt lat="49.38852" lon="-1.04284">
        <ele>8</ele>
        <time>2023-07-24T13:24:00Z</time>
      </trkpt>
      <trkpt lat="49.38843" lon="-1.04302">
        <ele>8</ele>
        <time>2023-07-24T13:24:12Z</time>
      </trkpt>
      <trkpt lat="49.38835" lon="-1.04319">
        <ele>8</ele>
        <time>2023-07-24T13:24:23Z</time>
      </trkpt>
      <trkpt lat="49.38822" lon="-1.0435">
        <ele>8</ele>
        <time>2023-07-24T13:24:44Z</time>
      </trkpt>
      <trkpt lat="49.38821" lon="-1.04361">
        <ele>8</ele>
        <time>2023-07-24T13:25:02Z</time>
      </trkpt>
      <trkpt lat="49.38821" lon="-1.0437">
        <ele>8</ele>
        <time>2023-07-24T13:25:12Z</time>
      </trkpt>
      <trkpt lat="49.38819" lon="-1.04377">
        <ele>8</ele>
        <time>2023-07-24T13:25:42Z</time>
      </trkpt>
      <trkpt lat="49.38816" lon="-1.04389">
        <ele>9</ele>
        <time>2023-07-24T13:26:45Z</time>
      </trkpt>
      <trkpt lat="49.38814" lon="-1.04396">
        <ele>9</ele>
        <time>2023-07-24T13:26:57Z</time>
      </trkpt>
      <trkpt lat="49.38811" lon="-1.04405">
        <ele>9</ele>
        <time>2023-07-24T13:27:08Z</time>
      </trkpt>
      <trkpt lat="49.38809" lon="-1.04419">
        <ele>10</ele>
        <time>2023-07-24T13:27:16Z</time>
      </trkpt>
      <trkpt lat="49.38802" lon="-1.0444">
        <ele>10</ele>
        <time>2023-07-24T13:27:34Z</time>
      </trkpt>
      <trkpt lat="49.388" lon="-1.04448">
        <ele>10</ele>
        <time>2023-07-24T13:27:44Z</time>
      </trkpt>
      <trkpt lat="49.38798" lon="-1.04454">
        <ele>10</ele>
        <time>2023-07-24T13:27:55Z</time>
      </trkpt>
      <trkpt lat="49.38795" lon="-1.04459">
        <ele>10</ele>
        <time>2023-07-24T13:28:06Z</time>
      </trkpt>
      <trkpt lat="49.38803" lon="-1.04465">
        <ele>10</ele>
        <time>2023-07-24T13:28:53Z</time>
      </trkpt>
      <trkpt lat="49.38799" lon="-1.04473">
        <ele>10</ele>
        <time>2023-07-24T13:29:00Z</time>
      </trkpt>
      <trkpt lat="49.38794" lon="-1.04476">
        <ele>10</ele>
        <time>2023-07-24T13:29:03Z</time>
      </trkpt>
      <trkpt lat="49.38791" lon="-1.04483">
        <ele>10</ele>
        <time>2023-07-24T13:29:07Z</time>
      </trkpt>
      <trkpt lat="49.3879" lon="-1.04489">
        <ele>9</ele>
        <time>2023-07-24T13:29:11Z</time>
      </trkpt>
      <trkpt lat="49.38788" lon="-1.04495">
        <ele>10</ele>
        <time>2023-07-24T13:29:15Z</time>
      </trkpt>
      <trkpt lat="49.38787" lon="-1.04502">
        <ele>10</ele>
        <time>2023-07-24T13:29:19Z</time>
      </trkpt>
      <trkpt lat="49.38788" lon="-1.04516">
        <ele>10</ele>
        <time>2023-07-24T13:29:27Z</time>
      </trkpt>
      <trkpt lat="49.38787" lon="-1.04523">
        <ele>9</ele>
        <time>2023-07-24T13:29:31Z</time>
      </trkpt>
      <trkpt lat="49.38785" lon="-1.0453">
        <ele>9</ele>
        <time>2023-07-24T13:29:41Z</time>
      </trkpt>
      <trkpt lat="49.38785" lon="-1.04538">
        <ele>9</ele>
        <time>2023-07-24T13:29:48Z</time>
      </trkpt>
      <trkpt lat="49.38786" lon="-1.04546">
        <ele>9</ele>
        <time>2023-07-24T13:29:52Z</time>
      </trkpt>
      <trkpt lat="49.38782" lon="-1.04567">
        <ele>9</ele>
        <time>2023-07-24T13:30:04Z</time>
      </trkpt>
      <trkpt lat="49.3878" lon="-1.04574">
        <ele>8</ele>
        <time>2023-07-24T13:30:08Z</time>
      </trkpt>
      <trkpt lat="49.3878" lon="-1.04581">
        <ele>8</ele>
        <time>2023-07-24T13:30:12Z</time>
      </trkpt>
      <trkpt lat="49.3878" lon="-1.04588">
        <ele>9</ele>
        <time>2023-07-24T13:30:16Z</time>
      </trkpt>
      <trkpt lat="49.38779" lon="-1.04602">
        <ele>9</ele>
        <time>2023-07-24T13:30:24Z</time>
      </trkpt>
      <trkpt lat="49.38778" lon="-1.04609">
        <ele>9</ele>
        <time>2023-07-24T13:30:28Z</time>
      </trkpt>
      <trkpt lat="49.38778" lon="-1.04624">
        <ele>9</ele>
        <time>2023-07-24T13:30:37Z</time>
      </trkpt>
      <trkpt lat="49.38779" lon="-1.04638">
        <ele>9</ele>
        <time>2023-07-24T13:30:44Z</time>
      </trkpt>
      <trkpt lat="49.38779" lon="-1.04645">
        <ele>9</ele>
        <time>2023-07-24T13:30:48Z</time>
      </trkpt>
      <trkpt lat="49.38776" lon="-1.04658">
        <ele>9</ele>
        <time>2023-07-24T13:30:56Z</time>
      </trkpt>
      <trkpt lat="49.38777" lon="-1.04667">
        <ele>9</ele>
        <time>2023-07-24T13:31:04Z</time>
      </trkpt>
      <trkpt lat="49.38779" lon="-1.04672">
        <ele>9</ele>
        <time>2023-07-24T13:31:14Z</time>
      </trkpt>
      <trkpt lat="49.38775" lon="-1.0468">
        <ele>8</ele>
        <time>2023-07-24T13:31:33Z</time>
      </trkpt>
      <trkpt lat="49.38771" lon="-1.04707">
        <ele>8</ele>
        <time>2023-07-24T13:31:49Z</time>
      </trkpt>
      <trkpt lat="49.38768" lon="-1.04758">
        <ele>8</ele>
        <time>2023-07-24T13:32:20Z</time>
      </trkpt>
      <trkpt lat="49.3877" lon="-1.04754">
        <ele>8</ele>
        <time>2023-07-24T13:36:10Z</time>
      </trkpt>
    </trkseg>
  </trk>
</gpx>